Provisional Data: Trout Brook near McGraw, NY


Please select a monitoring station.
Please select start date.
Please select start date.

Toggle Unit: C/F Toggle Unit: C/F
Sample Time Temperature (C) Temperature (F) Specific Conductivity (mS/cm) pH   Turbidity (NTU+) DO (mg/L)
6/22/2021 12:00:00 AM 0 32 0 8.22 3.55 7.4
6/22/2021 12:15:00 AM 0 32 0 8.23 3.9 7.41
6/22/2021 12:30:00 AM 0 32 0 8.23 5.12 7.5
6/22/2021 12:45:00 AM 0 32 0 8.24 4.75 7.57
6/22/2021 1:00:00 AM 0 32 0 8.24 4.88 7.61
6/22/2021 1:15:00 AM 0 32 0 8.25 5.29 7.63
6/22/2021 1:30:00 AM 0 32 0 8.23 4.81 7.64
6/22/2021 1:45:00 AM 0 32 0 8.25 4.31 7.65
6/22/2021 2:00:00 AM 0 32 0 8.2 3.96 7.65
6/22/2021 2:15:00 AM 0 32 0 8.21 3.99 7.64
6/22/2021 2:30:00 AM 0 32 0 8.21 4.01 7.65
6/22/2021 2:45:00 AM 0 32 0 8.2 3.93 7.65
6/22/2021 3:00:00 AM 0 32 0 8.2 3.51 7.66
6/22/2021 3:15:00 AM 0 32 0 8.18 3.5 7.68
6/22/2021 3:30:00 AM 0 32 0 8.18 3.28 7.7
6/22/2021 3:45:00 AM 0 32 0 8.18 2.92 7.7
6/22/2021 4:00:00 AM 0 32 0 8.16 2.93 7.72
6/22/2021 4:15:00 AM 0 32 0 8.17 2.79 7.74
6/22/2021 4:30:00 AM 0 32 0 8.15 2.8 7.74
6/22/2021 4:45:00 AM 0 32 0 8.15 2.66 7.76
6/22/2021 5:00:00 AM 0 32 0 8.15 2.9 7.77
6/22/2021 5:15:00 AM 0 32 0 8.14 2.72 7.78
6/22/2021 5:30:00 AM 0 32 0 8.14 2.81 7.8
6/22/2021 5:45:00 AM 0 32 0 8.13 2.49 7.83
6/22/2021 6:00:00 AM 0 32 0 8.13 2.38 7.85
6/22/2021 6:15:00 AM 0 32 0 8.13 2.33 7.89
6/22/2021 6:30:00 AM 0 32 0 8.14 2.24 7.97
6/22/2021 6:45:00 AM 0 32 0 8.15 2.19 8.06
6/22/2021 7:00:00 AM 0 32 0 8.18 2.19 8.19
6/22/2021 7:15:00 AM 0 32 0 8.22 2.16 8.38
6/22/2021 7:30:00 AM 0 32 0 8.25 2.06 8.44
6/22/2021 7:45:00 AM 0 32 0 8.22 1.95 8.36
6/22/2021 8:00:00 AM 0 32 0 8.22 1.99 8.36
6/22/2021 8:15:00 AM 0 32 0 8.22 1.91 8.36
6/22/2021 8:30:00 AM 0 32 0 8.21 1.93 8.37
6/22/2021 8:45:00 AM 0 32 0 8.22 1.87 8.39
6/22/2021 9:00:00 AM 0 32 0 8.24 1.89 8.52
6/22/2021 9:15:00 AM 0 32 0 8.29 1.86 8.73
6/22/2021 9:30:00 AM 0 32 0 8.3 1.86 8.72
6/22/2021 9:45:00 AM 0 32 0 8.34 1.8 8.87
6/22/2021 10:00:00 AM 0 32 0 8.37 1.79 8.96
6/22/2021 10:15:00 AM 0 32 0 8.38 1.8 8.95
6/22/2021 10:30:00 AM 0 32 0 8.34 1.75 8.86
6/22/2021 10:45:00 AM 0 32 0 8.4 1.79 9.05
6/22/2021 11:00:00 AM 0 32 0 8.48 1.75 9.25
6/22/2021 11:15:00 AM 0 32 0 8.54 1.74 9.41
6/22/2021 11:30:00 AM 0 32 0 8.6 1.72 9.51
6/22/2021 11:45:00 AM 0 32 0 8.66 1.78 9.68
6/22/2021 12:00:00 PM 0 32 0 8.73 1.63 9.77
6/22/2021 12:15:00 PM 0 32 0 8.71 1.61 9.68
6/22/2021 12:30:00 PM 0 32 0 8.77 1.63 9.82
6/22/2021 12:45:00 PM 0 32 0 8.81 1.56 9.85
6/22/2021 1:00:00 PM 0 32 0 8.78 1.6 9.73
6/22/2021 1:15:00 PM 0 32 0 8.76 1.64 9.68
6/22/2021 1:30:00 PM 0 32 0 8.66 1.59 9.4
6/22/2021 1:45:00 PM 0 32 0 8.67 1.65 9.49
6/22/2021 2:00:00 PM 0 32 0 8.59 1.62 9.23
6/22/2021 2:15:00 PM 0 32 0 8.55 1.55 9.19
6/22/2021 2:30:00 PM 0 32 0 8.48 1.52 9.07
6/22/2021 2:45:00 PM 0 32 0 8.48 1.61 9.09
6/22/2021 3:00:00 PM 0 32 0 8.42 1.54 9.03
6/22/2021 3:15:00 PM 0 32 0 8.41 1.53 9.07
6/22/2021 3:30:00 PM 0 32 0 8.45 1.59 9.18
6/22/2021 3:45:00 PM 0 32 0 8.45 1.49 9.2
6/22/2021 4:00:00 PM 0 32 0 8.5 1.5 9.34
6/22/2021 4:15:00 PM 0 32 0 8.51 1.56 9.36
6/22/2021 4:30:00 PM 0 32 0 8.54 1.49 9.43
6/22/2021 4:45:00 PM 0 32 0 8.6 1.49 9.59
6/22/2021 5:00:00 PM 0 32 0 8.64 1.55 9.7
6/22/2021 5:15:00 PM 0 32 0 8.7 1.57 9.83
6/22/2021 5:30:00 PM 0 32 0 8.8 1.5 9.9
6/22/2021 5:45:00 PM 0 32 0 8.77 1.65 9.83
6/22/2021 6:00:00 PM 0 32 0 8.74 1.65 9.75
6/22/2021 6:15:00 PM 0 32 0 8.72 1.6 9.67
6/22/2021 6:30:00 PM 0 32 0 8.64 1.67 9.42
6/22/2021 6:45:00 PM 0 32 0 8.57 1.96 9.35
6/22/2021 7:00:00 PM 0 32 0 8.46 1.94 9.08
6/22/2021 7:15:00 PM 0 32 0 8.4 1.6 9.01
6/22/2021 7:30:00 PM 0 32 0 8.37 1.59 8.88
6/22/2021 7:45:00 PM 0 32 0 8.29 1.64 8.76
6/22/2021 8:00:00 PM 0 32 0 8.24 1.57 8.67
6/22/2021 8:15:00 PM 0 32 0 8.19 1.59 8.59
6/22/2021 8:30:00 PM 0 32 0 8.16 1.58 8.5
6/22/2021 8:45:00 PM 0 32 0 8.1 1.59 8.42
6/22/2021 9:00:00 PM 0 32 0 8.08 1.63 8.36
6/22/2021 9:15:00 PM 0 32 0 8.05 1.74 8.29
6/22/2021 9:30:00 PM 0 32 0 8.03 1.79 8.28
6/22/2021 9:45:00 PM 0 32 0 8.01 1.93 8.27
6/22/2021 10:00:00 PM 0 32 0 7.97 1.88 8.28
6/22/2021 10:15:00 PM 0 32 0 7.97 1.78 8.3
6/22/2021 10:30:00 PM 0 32 0 7.97 1.75 8.29
6/22/2021 10:45:00 PM 0 32 0 7.96 1.75 8.32
6/22/2021 11:00:00 PM 0 32 0 7.96 1.74 8.33
6/22/2021 11:15:00 PM 0 32 0 7.93 1.82 8.35
6/22/2021 11:30:00 PM 0 32 0 7.93 1.8 8.37
6/22/2021 11:45:00 PM 0 32 0 7.92 1.73 8.39
6/23/2021 12:00:00 AM 0 32 0 7.92 1.84 8.42
6/23/2021 12:15:00 AM 0 32 0 7.92 1.78 8.44
6/23/2021 12:30:00 AM 0 32 0 7.91 1.92 8.44
6/23/2021 12:45:00 AM 0 32 0 7.91 1.82 8.46
6/23/2021 1:00:00 AM 0 32 0 7.91 1.82 8.49
6/23/2021 1:15:00 AM 0 32 0 7.91 1.76 8.5
6/23/2021 1:30:00 AM 0 32 0 7.9 1.77 8.52
6/23/2021 1:45:00 AM 0 32 0 7.89 1.77 8.55
6/23/2021 2:00:00 AM 0 32 0 7.89 1.71 8.55
6/23/2021 2:15:00 AM 0 32 0 7.89 1.76 8.58
6/23/2021 2:30:00 AM 0 32 0 7.9 1.69 8.6
6/23/2021 2:45:00 AM 0 32 0 7.89 1.76 8.62
6/23/2021 3:00:00 AM 0 32 0 7.88 1.69 8.65
6/23/2021 3:15:00 AM 0 32 0 7.89 1.72 8.65
6/23/2021 3:30:00 AM 0 32 0 7.88 1.69 8.68
6/23/2021 3:45:00 AM 0 32 0 7.88 1.77 8.7
6/23/2021 4:00:00 AM 0 32 0 7.89 1.76 8.7
6/23/2021 4:15:00 AM 0 32 0 7.88 1.72 8.73
6/23/2021 4:30:00 AM 0 32 0 7.87 1.76 8.76
6/23/2021 4:45:00 AM 0 32 0 7.87 1.87 8.78
6/23/2021 5:00:00 AM 0 32 0 7.87 1.75 8.79
6/23/2021 5:15:00 AM 0 32 0 7.87 1.65 8.81
6/23/2021 5:30:00 AM 0 32 0 7.87 1.63 8.84
6/23/2021 5:45:00 AM 0 32 0 7.88 1.58 8.92
6/23/2021 6:00:00 AM 0 32 0 7.89 1.53 9.02
6/23/2021 6:15:00 AM 0 32 0 7.9 1.49 9.11
6/23/2021 6:30:00 AM 0 32 0 7.94 1.46 9.25
6/23/2021 6:45:00 AM 0 32 0 7.99 1.47 9.4
6/23/2021 7:00:00 AM 0 32 0 8.03 1.44 9.56
6/23/2021 7:15:00 AM 0 32 0 8.09 1.42 9.67
6/23/2021 7:30:00 AM 0 32 0 8.14 1.42 9.79
6/23/2021 7:45:00 AM 0 32 0 8.19 1.38 9.89
6/23/2021 8:00:00 AM 0 32 0 8.25 1.37 9.99
6/23/2021 8:15:00 AM 0 32 0 8.31 1.32 10.06
6/23/2021 8:30:00 AM 0 32 0 8.36 1.36 10.12
6/23/2021 8:45:00 AM 0 32 0 8.41 1.36 10.18
6/23/2021 9:00:00 AM 0 32 0 8.46 1.36 10.24
6/23/2021 9:15:00 AM 0 32 0 8.51 1.32 10.28
6/23/2021 9:30:00 AM 0 32 0 8.57 1.33 10.32
6/23/2021 9:45:00 AM 0 32 0 8.63 1.32 10.38
6/23/2021 10:00:00 AM 0 32 0 8.68 1.35 10.41
6/23/2021 10:15:00 AM 0 32 0 8.74 1.32 10.48
6/23/2021 10:30:00 AM 0 32 0 8.78 2.16 10.44
6/23/2021 10:45:00 AM 0 32 0 8.79 1.36 10.46
6/23/2021 11:00:00 AM 0 32 0 8.84 1.37 10.5
6/23/2021 11:15:00 AM 0 32 0 8.87 1.41 10.42
6/23/2021 11:30:00 AM 0 32 0 8.88 1.41 10.45
6/23/2021 11:45:00 AM 0 32 0 8.9 1.38 10.4
6/23/2021 12:00:00 PM 0 32 0 8.95 1.43 10.41
6/23/2021 12:15:00 PM 0 32 0 8.94 1.33 10.27
6/23/2021 12:30:00 PM 0 32 0 8.96 1.39 10.38
6/23/2021 12:45:00 PM 0 32 0 8.98 1.32 10.25
6/23/2021 1:00:00 PM 0 32 0 8.93 1.33 10.14
6/23/2021 1:15:00 PM 0 32 0 9 1.37 10.32
6/23/2021 1:30:00 PM 0 32 0 9.09 1.52 10.31
6/23/2021 1:45:00 PM 0 32 0 9.04 1.49 10.16
6/23/2021 2:00:00 PM 0 32 0 9.02 1.39 10.19
6/23/2021 2:15:00 PM 0 32 0 9.07 1.45 10.19
6/23/2021 2:30:00 PM 0 32 0 9.11 1.51 10.25
6/23/2021 2:45:00 PM 0 32 0 9.12 1.48 10.17
6/23/2021 3:00:00 PM 0 32 0 9.14 1.57 10.21
6/23/2021 3:15:00 PM 0 32 0 9.17 1.59 10.23
6/23/2021 3:30:00 PM 0 32 0 9.17 1.6 10.17
6/23/2021 3:45:00 PM 0 32 0 9.19 1.54 10.15
6/23/2021 4:00:00 PM 0 32 0 9.2 1.42 10.12
6/23/2021 4:15:00 PM 0 32 0 9.2 1.57 10
6/23/2021 4:30:00 PM 0 32 0 9.14 1.51 9.75
6/23/2021 4:45:00 PM 0 32 0 9.13 1.54 9.88
6/23/2021 5:00:00 PM 0 32 0 9.09 1.89 9.62
6/23/2021 5:15:00 PM 0 32 0 9.04 1.51 9.56
6/23/2021 5:30:00 PM 0 32 0 9.01 1.6 9.53
6/23/2021 5:45:00 PM 0 32 0 8.97 1.75 9.44
6/23/2021 6:00:00 PM 0 32 0 8.9 1.53 9.3
6/23/2021 6:15:00 PM 0 32 0 8.83 1.54 9.2
6/23/2021 6:30:00 PM 0 32 0 8.73 1.42 9.09
6/23/2021 6:45:00 PM 0 32 0 8.66 1.44 8.99
6/23/2021 7:00:00 PM 0 32 0 8.58 1.38 8.87
6/23/2021 7:15:00 PM 0 32 0 8.45 1.45 8.67
6/23/2021 7:30:00 PM 0 32 0 8.34 1.52 8.54
6/23/2021 7:45:00 PM 0 32 0 8.26 1.32 8.44
6/23/2021 8:00:00 PM 0 32 0 8.21 1.33 8.36
6/23/2021 8:15:00 PM 0 32 0 8.16 1.33 8.27
6/23/2021 8:30:00 PM 0 32 0 8.13 1.37 8.19
6/23/2021 8:45:00 PM 0 32 0 8.09 1.32 8.1
6/23/2021 9:00:00 PM 0 32 0 8.06 1.46 8.04
6/23/2021 9:15:00 PM 0 32 0 8.03 1.51 7.99
6/23/2021 9:30:00 PM 0 32 0 8.01 1.42 7.97
6/23/2021 9:45:00 PM 0 32 0 7.99 1.55 7.97
6/23/2021 10:00:00 PM 0 32 0 7.98 1.55 7.98
6/23/2021 10:15:00 PM 0 32 0 7.98 1.57 8
6/23/2021 10:30:00 PM 0 32 0 7.97 1.52 8.02
6/23/2021 10:45:00 PM 0 32 0 7.96 1.62 8.04
6/23/2021 11:00:00 PM 0 32 0 7.95 1.5 8.07
6/23/2021 11:15:00 PM 0 32 0 7.95 1.55 8.09
6/23/2021 11:30:00 PM 0 32 0 7.95 1.65 8.11
6/23/2021 11:45:00 PM 0 32 0 7.94 1.58 8.13
6/24/2021 12:00:00 AM 0 32 0 7.94 1.61 8.15
6/24/2021 12:15:00 AM 0 32 0 7.94 1.67 8.18
6/24/2021 12:30:00 AM 0 32 0 7.93 1.62 8.2
6/24/2021 12:45:00 AM 0 32 0 7.94 1.59 8.22
6/24/2021 1:00:00 AM 0 32 0 7.93 1.56 8.24
6/24/2021 1:15:00 AM 0 32 0 7.92 1.57 8.26
6/24/2021 1:30:00 AM 0 32 0 7.92 1.85 8.29
6/24/2021 1:45:00 AM 0 32 0 7.92 1.75 8.31
6/24/2021 2:00:00 AM 0 32 0 7.93 1.62 8.34
6/24/2021 2:15:00 AM 0 32 0 7.93 1.55 8.36
6/24/2021 2:30:00 AM 0 32 0 7.93 1.64 8.37
6/24/2021 2:45:00 AM 0 32 0 7.9 2.07 8.39
6/24/2021 3:00:00 AM 0 32 0 7.92 1.77 8.41
6/24/2021 3:15:00 AM 0 32 0 7.93 1.6 8.42
6/24/2021 3:30:00 AM 0 32 0 7.92 1.58 8.44
6/24/2021 3:45:00 AM 0 32 0 7.92 1.61 8.47
6/24/2021 4:00:00 AM 0 32 0 7.93 1.57 8.48
6/24/2021 4:15:00 AM 0 32 0 7.92 1.55 8.49
6/24/2021 4:30:00 AM 0 32 0 7.91 1.56 8.52
6/24/2021 4:45:00 AM 0 32 0 7.91 1.53 8.53
6/24/2021 5:00:00 AM 0 32 0 7.92 1.55 8.55
6/24/2021 5:15:00 AM 0 32 0 7.91 1.44 8.56
6/24/2021 5:30:00 AM 0 32 0 7.92 1.42 8.6
6/24/2021 5:45:00 AM 0 32 0 7.93 1.7 8.65
6/24/2021 6:00:00 AM 0 32 0 7.96 1.37 8.75
6/24/2021 6:15:00 AM 0 32 0 7.99 1.36 8.85
6/24/2021 6:30:00 AM 0 32 0 8.03 1.32 9
6/24/2021 6:45:00 AM 0 32 0 8.07 1.31 9.19
6/24/2021 7:00:00 AM 0 32 0 8.12 1.31 9.36
6/24/2021 7:15:00 AM 0 32 0 8.18 1.32 9.49
6/24/2021 7:30:00 AM 0 32 0 8.22 1.4 9.62
6/24/2021 7:45:00 AM 0 32 0 8.28 1.29 9.73
6/24/2021 8:00:00 AM 0 32 0 8.33 1.35 9.84
6/24/2021 8:15:00 AM 0 32 0 8.39 1.3 9.93
6/24/2021 8:30:00 AM 0 32 0 8.45 1.34 10.01
6/24/2021 8:45:00 AM 0 32 0 8.5 1.28 10.09
6/24/2021 9:00:00 AM 0 32 0 8.55 1.3 10.14
6/24/2021 9:15:00 AM 0 32 0 8.61 1.29 10.22
6/24/2021 9:30:00 AM 0 32 0 8.66 1.31 10.28
6/24/2021 9:45:00 AM 0 32 0 8.72 1.3 10.3
6/24/2021 10:00:00 AM 0 32 0 8.78 1.39 10.34
6/24/2021 10:15:00 AM 0 32 0 8.83 1.33 10.36
6/24/2021 10:30:00 AM 0 32 0 8.86 1.29 10.35
6/24/2021 10:45:00 AM 0 32 0 8.9 1.31 10.37
6/24/2021 11:00:00 AM 0 32 0 8.94 1.3 10.36
6/24/2021 11:15:00 AM 0 32 0 8.98 1.39 10.37
6/24/2021 11:30:00 AM 0 32 0 9.01 1.42 10.36
6/24/2021 11:45:00 AM 0 32 0 9.05 1.41 10.35
6/24/2021 12:00:00 PM 0 32 0 9.08 1.36 10.35
6/24/2021 12:15:00 PM 0 32 0 9 1.33 10.34
6/24/2021 12:30:00 PM 0 32 0 9.03 1.33 10.31
6/24/2021 12:45:00 PM 0 32 0 9.06 1.36 10.32
6/24/2021 1:00:00 PM 0 32 0 9.08 1.41 10.27
6/24/2021 1:15:00 PM 0 32 0 9.09 1.4 10.24
6/24/2021 1:30:00 PM 0 32 0 9.12 1.35 10.23
6/24/2021 1:45:00 PM 0 32 0 9.14 1.61 10.21
6/24/2021 2:00:00 PM 0 32 0 9.14 1.46 10.16
6/24/2021 2:15:00 PM 0 32 0 9.19 1.42 10.11
6/24/2021 2:30:00 PM 0 32 0 9.15 1.41 10.08
6/24/2021 2:45:00 PM 0 32 0 9.15 1.33 10.02
6/24/2021 3:00:00 PM 0 32 0 9.15 1.48 9.98
6/24/2021 3:15:00 PM 0 32 0 9.15 1.45 9.92
6/24/2021 3:30:00 PM 0 32 0 9.15 1.41 9.86
6/24/2021 3:45:00 PM 0 32 0 9.13 1.45 9.78
6/24/2021 4:00:00 PM 0 32 0 9.11 1.41 9.71
6/24/2021 4:15:00 PM 0 32 0 9.09 1.45 9.65
6/24/2021 4:30:00 PM 0 32 0 9.07 1.49 9.55
6/24/2021 4:45:00 PM 0 32 0 9.05 1.41 9.47
6/24/2021 5:00:00 PM 0 32 0 9.02 1.52 9.4
6/24/2021 5:15:00 PM 0 32 0 8.99 1.47 9.33
6/24/2021 5:30:00 PM 0 32 0 8.95 1.48 9.23
6/24/2021 5:45:00 PM 0 32 0 8.89 1.44 9.14
6/24/2021 6:00:00 PM 0 32 0 8.82 1.4 9.01
6/24/2021 6:15:00 PM 0 32 0 8.73 1.42 8.88
6/24/2021 6:30:00 PM 0 32 0 8.62 1.4 8.77
6/24/2021 6:45:00 PM 0 32 0 8.53 1.42 8.66
6/24/2021 7:00:00 PM 0 32 0 8.44 1.34 8.53
6/24/2021 7:15:00 PM 0 32 0 8.32 1.32 8.35
6/24/2021 7:30:00 PM 0 32 0 8.24 1.34 8.22
6/24/2021 7:45:00 PM 0 32 0 8.17 1.31 8.15
6/24/2021 8:00:00 PM 0 32 0 8.12 1.37 8.07
6/24/2021 8:15:00 PM 0 32 0 8.06 1.32 7.98
6/24/2021 8:30:00 PM 0 32 0 8.03 1.21 7.9
6/24/2021 8:45:00 PM 0 32 0 7.99 1.38 7.8
6/24/2021 9:00:00 PM 0 32 0 7.97 1.26 7.72
6/24/2021 9:15:00 PM 0 32 0 7.96 1.37 7.68
6/24/2021 9:30:00 PM 0 32 0 7.94 1.34 7.67
6/24/2021 9:45:00 PM 0 32 0 7.95 1.56 7.67
6/24/2021 10:00:00 PM 0 32 0 7.94 1.46 7.67
6/24/2021 10:15:00 PM 0 32 0 7.94 1.48 7.68
6/24/2021 10:30:00 PM 0 32 0 7.92 1.51 7.69
6/24/2021 10:45:00 PM 0 32 0 7.92 1.47 7.71
6/24/2021 11:00:00 PM 0 32 0 7.91 1.53 7.75
6/24/2021 11:15:00 PM 0 32 0 7.91 1.52 7.78
6/24/2021 11:30:00 PM 0 32 0 7.91 1.49 7.8
6/24/2021 11:45:00 PM 0 32 0 7.91 1.51 7.82
6/25/2021 12:00:00 AM 0 32 0 7.9 1.6 7.84
6/25/2021 12:15:00 AM 0 32 0 7.9 1.49 7.87
6/25/2021 12:30:00 AM 0 32 0 7.91 1.54 7.88
6/25/2021 12:45:00 AM 0 32 0 7.9 1.73 7.89
6/25/2021 1:00:00 AM 0 32 0 7.91 1.57 7.92
6/25/2021 1:15:00 AM 0 32 0 7.91 1.48 7.92
6/25/2021 1:30:00 AM 0 32 0 7.91 1.57 7.94
6/25/2021 1:45:00 AM 0 32 0 7.92 1.59 7.97
6/25/2021 2:00:00 AM 0 32 0 7.92 1.6 7.97
6/25/2021 2:15:00 AM 0 32 0 7.92 1.56 8
6/25/2021 2:30:00 AM 0 32 0 7.93 1.65 8.01
6/25/2021 2:45:00 AM 0 32 0 7.93 1.52 8.02
6/25/2021 3:00:00 AM 0 32 0 7.92 1.53 8.04
6/25/2021 3:15:00 AM 0 32 0 7.92 1.56 8.05
6/25/2021 3:30:00 AM 0 32 0 7.91 1.65 8.06
6/25/2021 3:45:00 AM 0 32 0 7.91 1.61 8.08
6/25/2021 4:00:00 AM 0 32 0 7.91 1.5 8.08
6/25/2021 4:15:00 AM 0 32 0 7.91 1.6 8.09
6/25/2021 4:30:00 AM 0 32 0 7.91 1.58 8.1
6/25/2021 4:45:00 AM 0 32 0 7.92 1.7 8.13
6/25/2021 5:00:00 AM 0 32 0 7.92 1.62 8.13
6/25/2021 5:15:00 AM 0 32 0 7.91 1.52 8.16
6/25/2021 5:30:00 AM 0 32 0 7.91 1.53 8.18
6/25/2021 5:45:00 AM 0 32 0 7.92 1.4 8.26
6/25/2021 6:00:00 AM 0 32 0 7.94 1.4 8.36
6/25/2021 6:15:00 AM 0 32 0 7.96 1.44 8.5
6/25/2021 6:30:00 AM 0 32 0 8.01 1.24 8.73
6/25/2021 6:45:00 AM 0 32 0 8.06 1.34 8.96
6/25/2021 7:00:00 AM 0 32 0 8.12 1.27 9.16
6/25/2021 7:15:00 AM 0 32 0 8.18 1.29 9.32
6/25/2021 7:30:00 AM 0 32 0 8.23 1.22 9.45
6/25/2021 7:45:00 AM 0 32 0 8.28 1.28 9.59
6/25/2021 8:00:00 AM 0 32 0 8.36 1.4 9.78
6/25/2021 8:15:00 AM 0 32 0 8.44 1.3 9.96
6/25/2021 8:30:00 AM 0 32 0 8.5 1.26 10.05
6/25/2021 8:45:00 AM 0 32 0 8.57 1.3 10.15
6/25/2021 9:00:00 AM 0 32 0 8.62 1.24 10.22
6/25/2021 9:15:00 AM 0 32 0 8.69 1.27 10.31
6/25/2021 9:30:00 AM 0 32 0 8.74 1.36 10.35
6/25/2021 9:45:00 AM 0 32 0 8.8 1.26 10.4
6/25/2021 10:00:00 AM 0 32 0 8.84 1.29 10.44
6/25/2021 10:15:00 AM 0 32 0 8.88 1.35 10.48
6/25/2021 10:30:00 AM 0 32 0 8.92 1.32 10.5
6/25/2021 10:45:00 AM 0 32 0 8.95 1.33 10.49
6/25/2021 11:00:00 AM 0 32 0 8.98 1.36 10.46
6/25/2021 11:15:00 AM 0 32 0 9.02 1.43 10.48
6/25/2021 11:30:00 AM 0 32 0 9.04 1.41 10.51
6/25/2021 11:45:00 AM 0 32 0 9.08 1.47 10.5
6/25/2021 12:00:00 PM 0 32 0 9.09 1.38 10.51
6/25/2021 12:15:00 PM 0 32 0 9.12 1.4 10.47
6/25/2021 12:30:00 PM 0 32 0 9.14 1.38 10.49
6/25/2021 12:45:00 PM 0 32 0 9.17 1.59 10.45
6/25/2021 1:00:00 PM 0 32 0 9.2 1.69 10.41
6/25/2021 1:15:00 PM 0 32 0 9.2 1.43 10.36
6/25/2021 1:30:00 PM 0 32 0 9.22 1.52 10.35
6/25/2021 1:45:00 PM 0 32 0 9.23 1.64 10.3
6/25/2021 2:00:00 PM 0 32 0 9.23 1.43 10.27
6/25/2021 2:15:00 PM 0 32 0 9.23 1.65 10.29
6/25/2021 2:30:00 PM 0 32 0 9.23 1.6 10.26
6/25/2021 2:45:00 PM 0 32 0 9.25 1.51 10.3
6/25/2021 3:00:00 PM 0 32 0 9.27 1.45 10.26
6/25/2021 3:15:00 PM 0 32 0 9.28 1.5 10.19
6/25/2021 3:30:00 PM 0 32 0 9.26 1.41 10.13
6/25/2021 3:45:00 PM 0 32 0 9.26 1.41 10.14
6/25/2021 4:00:00 PM 0 32 0 9.26 1.49 9.95
6/25/2021 4:15:00 PM 0 32 0 9.2 1.45 9.77
6/25/2021 4:30:00 PM 0 32 0 9.17 1.43 9.77
6/25/2021 4:45:00 PM 0 32 0 9.16 1.38 9.73
6/25/2021 5:00:00 PM 0 32 0 9.12 1.41 9.58
6/25/2021 5:15:00 PM 0 32 0 9.09 1.41 9.47
6/25/2021 5:30:00 PM 0 32 0 9.05 1.43 9.37
6/25/2021 5:45:00 PM 0 32 0 9.02 1.52 9.34
6/25/2021 6:00:00 PM 0 32 0 8.98 1.47 9.23
6/25/2021 6:15:00 PM 0 32 0 8.9 1.46 9.01
6/25/2021 6:30:00 PM 0 32 0 8.8 1.38 8.88
6/25/2021 6:45:00 PM 0 32 0 8.74 1.37 8.91
6/25/2021 7:00:00 PM 0 32 0 8.66 1.37 8.73
6/25/2021 7:15:00 PM 0 32 0 8.54 1.36 8.58
6/25/2021 7:30:00 PM 0 32 0 8.47 1.33 8.56
6/25/2021 7:45:00 PM 0 32 0 8.37 1.3 8.35
6/25/2021 8:00:00 PM 0 32 0 8.26 1.33 8.1
6/25/2021 8:15:00 PM 0 32 0 8.18 1.29 7.96
6/25/2021 8:30:00 PM 0 32 0 8.12 1.3 7.82
6/25/2021 8:45:00 PM 0 32 0 8.08 1.25 7.68
6/25/2021 9:00:00 PM 0 32 0 8.03 1.31 7.57
6/25/2021 9:15:00 PM 0 32 0 8 1.4 7.51
6/25/2021 9:30:00 PM 0 32 0 7.98 1.33 7.49
6/25/2021 9:45:00 PM 0 32 0 7.98 1.48 7.47
6/25/2021 10:00:00 PM 0 32 0 7.97 1.48 7.46
6/25/2021 10:15:00 PM 0 32 0 7.96 1.6 7.47
6/25/2021 10:30:00 PM 0 32 0 7.96 1.56 7.47
6/25/2021 10:45:00 PM 0 32 0 7.95 1.56 7.48
6/25/2021 11:00:00 PM 0 32 0 7.96 1.59 7.49
6/25/2021 11:15:00 PM 0 32 0 7.96 1.49 7.51
6/25/2021 11:30:00 PM 0 32 0 7.96 1.62 7.53
6/25/2021 11:45:00 PM 0 32 0 7.95 1.57 7.55
6/26/2021 12:00:00 AM 0 32 0 7.95 1.6 7.57
6/26/2021 12:15:00 AM 0 32 0 7.95 1.59 7.57
6/26/2021 12:30:00 AM 0 32 0 7.95 1.65 7.58
6/26/2021 12:45:00 AM 0 32 0 7.95 1.72 7.61
6/26/2021 1:00:00 AM 0 32 0 7.95 1.62 7.62
6/26/2021 1:15:00 AM 0 32 0 7.95 1.61 7.64
6/26/2021 1:30:00 AM 0 32 0 7.95 1.64 7.66
6/26/2021 1:45:00 AM 0 32 0 7.95 1.56 7.66
6/26/2021 2:00:00 AM 0 32 0 7.96 1.52 7.69
6/26/2021 2:15:00 AM 0 32 0 7.95 1.51 7.69
6/26/2021 2:30:00 AM 0 32 0 7.95 1.54 7.7
6/26/2021 2:45:00 AM 0 32 0 7.95 1.6 7.71
6/26/2021 3:00:00 AM 0 32 0 7.95 1.63 7.72
6/26/2021 3:15:00 AM 0 32 0 7.95 1.44 7.74
6/26/2021 3:30:00 AM 0 32 0 7.95 1.59 7.74
6/26/2021 3:45:00 AM 0 32 0 7.94 1.69 7.75
6/26/2021 4:00:00 AM 0 32 0 7.94 1.53 7.76
6/26/2021 4:15:00 AM 0 32 0 7.94 1.56 7.77
6/26/2021 4:30:00 AM 0 32 0 7.94 1.58 7.78
6/26/2021 4:45:00 AM 0 32 0 7.94 1.7 7.78
6/26/2021 5:00:00 AM 0 32 0 7.95 1.7 7.8
6/26/2021 5:15:00 AM 0 32 0 7.95 1.57 7.8
6/26/2021 5:30:00 AM 0 32 0 7.95 1.56 7.82
6/26/2021 5:45:00 AM 0 32 0 7.96 1.49 7.87
6/26/2021 6:00:00 AM 0 32 0 7.98 1.4 7.95
6/26/2021 6:15:00 AM 0 32 0 7.99 1.4 8.04
6/26/2021 6:30:00 AM 0 32 0 8.01 1.37 8.11
6/26/2021 6:45:00 AM 0 32 0 8.02 1.43 8.2
6/26/2021 7:00:00 AM 0 32 0 8.04 1.37 8.31
6/26/2021 7:15:00 AM 0 32 0 8.08 1.4 8.48
6/26/2021 7:30:00 AM 0 32 0 8.14 1.52 8.79
6/26/2021 7:45:00 AM 0 32 0 8.24 1.32 9.1
6/26/2021 8:00:00 AM 0 32 0 8.29 1.28 9.19
6/26/2021 8:15:00 AM 0 32 0 8.33 1.32 9.28
6/26/2021 8:30:00 AM 0 32 0 8.34 1.26 9.27
6/26/2021 8:45:00 AM 0 32 0 8.32 1.31 9.14
6/26/2021 9:00:00 AM 0 32 0 8.39 1.27 9.35
6/26/2021 9:15:00 AM 0 32 0 8.44 1.25 9.42
6/26/2021 9:30:00 AM 0 32 0 8.51 1.29 9.64
6/26/2021 9:45:00 AM 0 32 0 8.64 1.27 9.97
6/26/2021 10:00:00 AM 0 32 0 8.71 1.35 10.06
6/26/2021 10:15:00 AM 0 32 0 8.75 1.36 10.12
6/26/2021 10:30:00 AM 0 32 0 8.79 1.32 10.13
6/26/2021 10:45:00 AM 0 32 0 8.79 1.61 10.01
6/26/2021 11:00:00 AM 0 32 0 8.79 1.34 9.94
6/26/2021 11:15:00 AM 0 32 0 8.79 1.32 9.79
6/26/2021 11:30:00 AM 0 32 0 8.76 1.35 9.72
6/26/2021 11:45:00 AM 0 32 0 8.82 1.37 10
6/26/2021 12:00:00 PM 0 32 0 8.87 1.36 10.18
6/26/2021 12:15:00 PM 0 32 0 8.92 1.31 10.27
6/26/2021 12:30:00 PM 0 32 0 8.96 1.37 10.38
6/26/2021 12:45:00 PM 0 32 0 9.01 1.44 10.49
6/26/2021 1:00:00 PM 0 32 0 9.06 1.48 10.61
6/26/2021 1:15:00 PM 0 32 0 9.13 1.41 10.62
6/26/2021 1:30:00 PM 0 32 0 9.19 1.9 10.63
6/26/2021 1:45:00 PM 0 32 0 9.24 1.4 10.63
6/26/2021 2:00:00 PM 0 32 0 9.28 1.48 10.58
6/26/2021 2:15:00 PM 0 32 0 9.3 1.49 10.55
6/26/2021 2:30:00 PM 0 32 0 9.34 1.51 10.5
6/26/2021 2:45:00 PM 0 32 0 9.37 1.42 10.41
6/26/2021 3:00:00 PM 0 32 0 9.35 1.37 10.2
6/26/2021 3:15:00 PM 0 32 0 9.35 1.49 10.22
6/26/2021 3:30:00 PM 0 32 0 9.37 1.46 10.16
6/26/2021 3:45:00 PM 0 32 0 9.38 1.48 10.08
6/26/2021 4:00:00 PM 0 32 0 9.37 1.54 9.98
6/26/2021 4:15:00 PM 0 32 0 9.36 1.51 9.87
6/26/2021 4:30:00 PM 0 32 0 9.34 1.53 9.8
6/26/2021 4:45:00 PM 0 32 0 9.32 1.45 9.7
6/26/2021 5:00:00 PM 0 32 0 9.29 1.55 9.61
6/26/2021 5:15:00 PM 0 32 0 9.25 1.43 9.48
6/26/2021 5:30:00 PM 0 32 0 9.21 1.42 9.42
6/26/2021 5:45:00 PM 0 32 0 9.17 1.5 9.31
6/26/2021 6:00:00 PM 0 32 0 9.1 1.47 9.26
6/26/2021 6:15:00 PM 0 32 0 9.03 1.59 9.06
6/26/2021 6:30:00 PM 0 32 0 8.97 1.33 9.03
6/26/2021 6:45:00 PM 0 32 0 8.88 1.36 8.81
6/26/2021 7:00:00 PM 0 32 0 8.76 1.49 8.58
6/26/2021 7:15:00 PM 0 32 0 8.6 1.33 8.3
6/26/2021 7:30:00 PM 0 32 0 8.52 1.33 8.27
6/26/2021 7:45:00 PM 0 32 0 8.48 1.36 8.24
6/26/2021 8:00:00 PM 0 32 0 8.4 1.35 8.07
6/26/2021 8:15:00 PM 0 32 0 8.28 1.28 7.85
6/26/2021 8:30:00 PM 0 32 0 8.2 1.39 7.69
6/26/2021 8:45:00 PM 0 32 0 8.12 1.34 7.51
6/26/2021 9:00:00 PM 0 32 0 8.07 1.29 7.39
6/26/2021 9:15:00 PM 0 32 0 8.04 1.39 7.31
6/26/2021 9:30:00 PM 0 32 0 8.02 1.5 7.26
6/26/2021 9:45:00 PM 0 32 0 8.01 1.42 7.23
6/26/2021 10:00:00 PM 0 32 0 8 1.6 7.22
6/26/2021 10:15:00 PM 0 32 0 7.98 1.64 7.22
6/26/2021 10:30:00 PM 0 32 0 8 1.59 7.22
6/26/2021 10:45:00 PM 0 32 0 7.99 1.48 7.22
6/26/2021 11:00:00 PM 0 32 0 8 1.49 7.24
6/26/2021 11:15:00 PM 0 32 0 7.99 1.52 7.25
6/26/2021 11:30:00 PM 0 32 0 7.98 1.61 7.26
6/26/2021 11:45:00 PM 0 32 0 7.99 1.69 7.29
6/27/2021 12:00:00 AM 0 32 0 7.99 1.57 7.29
6/27/2021 12:15:00 AM 0 32 0 7.99 1.54 7.3
6/27/2021 12:30:00 AM 0 32 0 7.99 1.56 7.33
6/27/2021 12:45:00 AM 0 32 0 7.99 1.59 7.33
6/27/2021 1:00:00 AM 0 32 0 7.99 1.56 7.33
6/27/2021 1:15:00 AM 0 32 0 7.99 1.61 7.35
6/27/2021 1:30:00 AM 0 32 0 7.99 1.62 7.35
6/27/2021 1:45:00 AM 0 32 0 7.99 1.6 7.37
6/27/2021 2:00:00 AM 0 32 0 7.99 1.65 7.37
6/27/2021 2:15:00 AM 0 32 0 7.99 1.62 7.39
6/27/2021 2:30:00 AM 0 32 0 7.98 1.67 7.39
6/27/2021 2:45:00 AM 0 32 0 7.99 1.62 7.39
6/27/2021 3:00:00 AM 0 32 0 7.98 1.7 7.42
6/27/2021 3:15:00 AM 0 32 0 7.98 1.65 7.42
6/27/2021 3:30:00 AM 0 32 0 7.97 1.69 7.43
6/27/2021 3:45:00 AM 0 32 0 7.98 1.67 7.44
6/27/2021 4:00:00 AM 0 32 0 7.98 1.72 7.44
6/27/2021 4:15:00 AM 0 32 0 7.97 1.69 7.46
6/27/2021 4:30:00 AM 0 32 0 7.96 1.83 7.46
6/27/2021 4:45:00 AM 0 32 0 7.97 1.71 7.49
6/27/2021 5:00:00 AM 0 32 0 7.97 1.89 7.48
6/27/2021 5:15:00 AM 0 32 0 7.97 1.69 7.49
6/27/2021 5:30:00 AM 0 32 0 7.97 1.77 7.52
6/27/2021 5:45:00 AM 0 32 0 7.97 1.55 7.57
6/27/2021 6:00:00 AM 0 32 0 8 1.52 7.67
6/27/2021 6:15:00 AM 0 32 0 8.02 1.48 7.81
6/27/2021 6:30:00 AM 0 32 0 8.06 1.41 8.03
6/27/2021 6:45:00 AM 0 32 0 8.1 1.41 8.29
6/27/2021 7:00:00 AM 0 32 0 8.18 1.35 8.61
6/27/2021 7:15:00 AM 0 32 0 8.26 1.36 8.84
6/27/2021 7:30:00 AM 0 32 0 8.3 1.32 8.93
6/27/2021 7:45:00 AM 0 32 0 8.35 1.38 9.06
6/27/2021 8:00:00 AM 0 32 0 8.41 1.31 9.22
6/27/2021 8:15:00 AM 0 32 0 8.48 1.41 9.37
6/27/2021 8:30:00 AM 0 32 0 8.56 1.35 9.51
6/27/2021 8:45:00 AM 0 32 0 8.59 1.32 9.55
6/27/2021 9:00:00 AM 0 32 0 8.66 1.31 9.69
6/27/2021 9:15:00 AM 0 32 0 8.75 1.4 9.82
6/27/2021 9:30:00 AM 0 32 0 8.82 1.37 9.95
6/27/2021 9:45:00 AM 0 32 0 8.88 1.41 9.99
6/27/2021 10:00:00 AM 0 32 0 8.92 1.34 10.03
6/27/2021 10:15:00 AM 0 32 0 8.98 1.42 10.06
6/27/2021 10:30:00 AM 0 32 0 9.05 1.47 10.16
6/27/2021 10:45:00 AM 0 32 0 9.08 1.36 10.08
6/27/2021 11:00:00 AM 0 32 0 9.11 1.48 10.11
6/27/2021 11:15:00 AM 0 32 0 9.12 1.49 10.08
6/27/2021 11:30:00 AM 0 32 0 9.15 1.42 10.19
6/27/2021 11:45:00 AM 0 32 0 9.21 1.62 10.21
6/27/2021 12:00:00 PM 0 32 0 9.23 1.4 10.12
6/27/2021 12:15:00 PM 0 32 0 9.25 1.4 10.14
6/27/2021 12:30:00 PM 0 32 0 9.29 1.46 10.13
6/27/2021 12:45:00 PM 0 32 0 9.29 1.48 9.99
6/27/2021 1:00:00 PM 0 32 0 9.31 1.34 10.04
6/27/2021 1:15:00 PM 0 32 0 9.34 1.55 9.98
6/27/2021 1:30:00 PM 0 32 0 9.36 1.39 9.94
6/27/2021 1:45:00 PM 0 32 0 9.38 1.44 9.85
6/27/2021 2:00:00 PM 0 32 0 9.38 1.47 9.8
6/27/2021 2:15:00 PM 0 32 0 9.39 1.58 9.76
6/27/2021 2:30:00 PM 0 32 0 9.41 1.42 9.72
6/27/2021 2:45:00 PM 0 32 0 9.4 1.43 9.58
6/27/2021 3:00:00 PM 0 32 0 9.4 1.42 9.55
6/27/2021 3:15:00 PM 0 32 0 9.38 1.39 9.29
6/27/2021 3:30:00 PM 0 32 0 9.37 1.42 9.35
6/27/2021 3:45:00 PM 0 32 0 9.35 1.38 9.22
6/27/2021 4:00:00 PM 0 32 0 9.3 1.4 9.08
6/27/2021 4:15:00 PM 0 32 0 9.29 1.42 9.09
6/27/2021 4:30:00 PM 0 32 0 9.25 1.43 8.87
6/27/2021 4:45:00 PM 0 32 0 9.23 1.42 8.88
6/27/2021 5:00:00 PM 0 32 0 9.22 1.42 8.9
6/27/2021 5:15:00 PM 0 32 0 9.18 1.41 8.7
6/27/2021 5:30:00 PM 0 32 0 9.11 1.35 8.52
6/27/2021 5:45:00 PM 0 32 0 9.07 1.29 8.51
6/27/2021 6:00:00 PM 0 32 0 9.03 1.3 8.45
6/27/2021 6:15:00 PM 0 32 0 8.97 1.34 8.36
6/27/2021 6:30:00 PM 0 32 0 8.91 1.36 8.28
6/27/2021 6:45:00 PM 0 32 0 8.82 1.24 8.13
6/27/2021 7:00:00 PM 0 32 0 8.75 1.3 8.04
6/27/2021 7:15:00 PM 0 32 0 8.65 1.23 7.91
6/27/2021 7:30:00 PM 0 32 0 8.56 1.25 7.77
6/27/2021 7:45:00 PM 0 32 0 8.48 1.21 7.64
6/27/2021 8:00:00 PM 0 32 0 8.39 1.31 7.51
6/27/2021 8:15:00 PM 0 32 0 8.32 1.34 7.38
6/27/2021 8:30:00 PM 0 32 0 8.25 1.22 7.25
6/27/2021 8:45:00 PM 0 32 0 8.18 1.23 7.12
6/27/2021 9:00:00 PM 0 32 0 8.13 1.25 7
6/27/2021 9:15:00 PM 0 32 0 8.1 1.4 6.94
6/27/2021 9:30:00 PM 0 32 0 8.07 1.51 6.89
6/27/2021 9:45:00 PM 0 32 0 8.06 1.45 6.87
6/27/2021 10:00:00 PM 0 32 0 8.05 1.68 6.86
6/27/2021 10:15:00 PM 0 32 0 8.04 1.43 6.88
6/27/2021 10:30:00 PM 0 32 0 8.04 1.51 6.88
6/27/2021 10:45:00 PM 0 32 0 8.03 1.44 6.9
6/27/2021 11:00:00 PM 0 32 0 8.04 1.53 6.9
6/27/2021 11:15:00 PM 0 32 0 8.03 1.42 6.91
6/27/2021 11:30:00 PM 0 32 0 8.04 1.4 6.93
6/27/2021 11:45:00 PM 0 32 0 8.02 1.91 6.94
6/28/2021 12:00:00 AM 0 32 0 8.03 1.53 6.95
6/28/2021 12:15:00 AM 0 32 0 8.04 1.52 6.97
6/28/2021 12:30:00 AM 0 32 0 8.04 1.47 6.99
6/28/2021 12:45:00 AM 0 32 0 8.03 1.56 6.99
6/28/2021 1:00:00 AM 0 32 0 8.04 1.51 7.01
6/28/2021 1:15:00 AM 0 32 0 8.04 1.64 7.01
6/28/2021 1:30:00 AM 0 32 0 8.03 1.54 7.03
6/28/2021 1:45:00 AM 0 32 0 8.03 1.58 7.05
6/28/2021 2:00:00 AM 0 32 0 8.02 1.66 7.05
6/28/2021 2:15:00 AM 0 32 0 8.02 1.66 7.07
6/28/2021 2:30:00 AM 0 32 0 8.01 1.79 7.08
6/28/2021 2:45:00 AM 0 32 0 8.01 1.78 7.1
6/28/2021 3:00:00 AM 0 32 0 8.01 1.68 7.12
6/28/2021 3:15:00 AM 0 32 0 8.01 1.64 7.13
6/28/2021 3:30:00 AM 0 32 0 8.01 1.84 7.14
6/28/2021 3:45:00 AM 0 32 0 8.01 1.78 7.15
6/28/2021 4:00:00 AM 0 32 0 8 1.64 7.15
6/28/2021 4:15:00 AM 0 32 0 8.01 1.64 7.18
6/28/2021 4:30:00 AM 0 32 0 8.01 1.76 7.18
6/28/2021 4:45:00 AM 0 32 0 8 2.36 7.18
6/28/2021 5:00:00 AM 0 32 0 8 1.78 7.2
6/28/2021 5:15:00 AM 0 32 0 8 1.8 7.2
6/28/2021 5:30:00 AM 0 32 0 8 1.74 7.25
6/28/2021 5:45:00 AM 0 32 0 8 1.67 7.31
6/28/2021 6:00:00 AM 0 32 0 8.01 1.54 7.42
6/28/2021 6:15:00 AM 0 32 0 8.04 1.56 7.55
6/28/2021 6:30:00 AM 0 32 0 8.05 1.47 7.66
6/28/2021 6:45:00 AM 0 32 0 8.08 1.39 7.85
6/28/2021 7:00:00 AM 0 32 0 8.16 1.45 8.26
6/28/2021 7:15:00 AM 0 32 0 8.23 1.39 8.51
6/28/2021 7:30:00 AM 0 32 0 8.27 1.4 8.6
6/28/2021 7:45:00 AM 0 32 0 8.32 1.38 8.79
6/28/2021 8:00:00 AM 0 32 0 8.38 1.37 8.94
6/28/2021 8:15:00 AM 0 32 0 8.46 1.36 9.09
6/28/2021 8:30:00 AM 0 32 0 8.52 1.33 9.22
6/28/2021 8:45:00 AM 0 32 0 8.59 1.31 9.41
6/28/2021 9:00:00 AM 0 32 0 8.67 1.36 9.53
6/28/2021 9:15:00 AM 0 32 0 8.72 1.38 9.6
6/28/2021 9:30:00 AM 0 32 0 8.78 1.36 9.66
6/28/2021 9:45:00 AM 0 32 0 8.85 1.49 9.73
6/28/2021 10:00:00 AM 0 32 0 8.9 1.33 9.8
6/28/2021 10:15:00 AM 0 32 0 8.96 1.35 9.87
6/28/2021 10:30:00 AM 0 32 0 9.03 1.41 9.91
6/28/2021 10:45:00 AM 0 32 0 9.06 1.39 9.97
6/28/2021 11:00:00 AM 0 32 0 9.09 1.46 9.95
6/28/2021 11:15:00 AM 0 32 0 9.12 1.37 9.98
6/28/2021 11:30:00 AM 0 32 0 9.16 1.44 9.94
6/28/2021 11:45:00 AM 0 32 0 9.19 1.5 9.93
6/28/2021 12:00:00 PM 0 32 0 9.23 1.41 9.89
6/28/2021 12:15:00 PM 0 32 0 9.26 1.43 9.88
6/28/2021 12:30:00 PM 0 32 0 9.27 1.46 9.81
6/28/2021 12:45:00 PM 0 32 0 9.26 1.64 9.57
6/28/2021 1:00:00 PM 0 32 0 9.27 1.47 9.58
6/28/2021 1:15:00 PM 0 32 0 9.29 1.41 9.65
6/28/2021 1:30:00 PM 0 32 0 9.33 1.44 9.63
6/28/2021 1:45:00 PM 0 32 0 9.34 1.51 9.53
6/28/2021 2:00:00 PM 0 32 0 9.37 1.45 9.43
6/28/2021 2:15:00 PM 0 32 0 9.35 1.43 9.32
6/28/2021 2:30:00 PM 0 32 0 9.34 1.48 9.25
6/28/2021 2:45:00 PM 0 32 0 9.33 1.42 9.09
6/28/2021 3:00:00 PM 0 32 0 9.3 1.65 8.93
6/28/2021 3:15:00 PM 0 32 0 9.3 1.36 9.1
6/28/2021 3:30:00 PM 0 32 0 9.3 1.42 8.98
6/28/2021 3:45:00 PM 0 32 0 9.25 1.33 8.75
6/28/2021 4:00:00 PM 0 32 0 9.1 1.34 8.17
6/28/2021 4:15:00 PM 0 32 0 8.93 1.35 7.79
6/28/2021 4:30:00 PM 0 32 0 8.87 1.31 7.85
6/28/2021 4:45:00 PM 0 32 0 8.88 1.31 8.09
6/28/2021 5:00:00 PM 0 32 0 8.78 1.31 7.87
6/28/2021 5:15:00 PM 0 32 0 8.63 1.28 7.59
6/28/2021 5:30:00 PM 0 32 0 8.61 1.33 7.86
6/28/2021 5:45:00 PM 0 32 0 8.68 1.22 8.33
6/28/2021 6:00:00 PM 0 32 0 8.7 1.26 8.35
6/28/2021 6:15:00 PM 0 32 0 8.65 1.22 8.22
6/28/2021 6:30:00 PM 0 32 0 8.61 1.16 8.13
6/28/2021 6:45:00 PM 0 32 0 8.57 1.22 8.09
6/28/2021 7:00:00 PM 0 32 0 8.56 1.32 8.07
6/28/2021 7:15:00 PM 0 32 0 8.55 1.28 8.06
6/28/2021 7:30:00 PM 0 32 0 8.51 1.18 7.98
6/28/2021 7:45:00 PM 0 32 0 8.47 1.21 7.85
6/28/2021 8:00:00 PM 0 32 0 8.38 1.27 7.63
6/28/2021 8:15:00 PM 0 32 0 8.28 1.21 7.39
6/28/2021 8:30:00 PM 0 32 0 8.2 1.32 7.2
6/28/2021 8:45:00 PM 0 32 0 8.14 1.22 7.09
6/28/2021 9:00:00 PM 0 32 0 8.09 1.31 6.97
6/28/2021 9:15:00 PM 0 32 0 8.06 1.39 6.9
6/28/2021 9:30:00 PM 0 32 0 8.03 1.49 6.85
6/28/2021 9:45:00 PM 0 32 0 8.02 1.57 6.83
6/28/2021 10:00:00 PM 0 32 0 8.01 1.57 6.84
6/28/2021 10:15:00 PM 0 32 0 8 1.57 6.84
6/28/2021 10:30:00 PM 0 32 0 7.99 1.47 6.83
6/28/2021 10:45:00 PM 0 32 0 7.99 1.65 6.84
6/28/2021 11:00:00 PM 0 32 0 7.99 1.5 6.86
6/28/2021 11:15:00 PM 0 32 0 7.98 1.58 6.86
6/28/2021 11:30:00 PM 0 32 0 7.98 1.57 6.87
6/28/2021 11:45:00 PM 0 32 0 7.98 1.55 6.9
6/29/2021 12:00:00 AM 0 32 0 7.98 1.57 6.91
6/29/2021 12:15:00 AM 0 32 0 7.97 1.73 6.93
6/29/2021 12:30:00 AM 0 32 0 7.97 1.49 6.94
6/29/2021 12:45:00 AM 0 32 0 7.96 1.94 6.95
6/29/2021 1:00:00 AM 0 32 0 7.96 1.99 6.97
6/29/2021 1:15:00 AM 0 32 0 7.96 1.64 6.98
6/29/2021 1:30:00 AM 0 32 0 7.96 1.64 7
6/29/2021 1:45:00 AM 0 32 0 7.96 1.71 7.03
6/29/2021 2:00:00 AM 0 32 0 7.96 1.63 7.03
6/29/2021 2:15:00 AM 0 32 0 7.96 1.83 7.05
6/29/2021 2:30:00 AM 0 32 0 7.95 1.76 7.06
6/29/2021 2:45:00 AM 0 32 0 7.95 1.71 7.07
6/29/2021 3:00:00 AM 0 32 0 7.95 1.82 7.09
6/29/2021 3:15:00 AM 0 32 0 7.94 1.79 7.09
6/29/2021 3:30:00 AM 0 32 0 7.94 1.77 7.11
6/29/2021 3:45:00 AM 0 32 0 7.94 1.69 7.12
6/29/2021 4:00:00 AM 0 32 0 7.94 1.8 7.14
6/29/2021 4:15:00 AM 0 32 0 7.94 1.76 7.15
6/29/2021 4:30:00 AM 0 32 0 7.94 1.8 7.16
6/29/2021 4:45:00 AM 0 32 0 7.93 1.91 7.18
6/29/2021 5:00:00 AM 0 32 0 7.93 1.81 7.18
6/29/2021 5:15:00 AM 0 32 0 7.93 1.73 7.22
6/29/2021 5:30:00 AM 0 32 0 7.93 1.76 7.24
6/29/2021 5:45:00 AM 0 32 0 7.94 1.63 7.32
6/29/2021 6:00:00 AM 0 32 0 7.95 1.58 7.44
6/29/2021 6:15:00 AM 0 32 0 7.97 1.49 7.58
6/29/2021 6:30:00 AM 0 32 0 7.99 1.42 7.72
6/29/2021 6:45:00 AM 0 32 0 8.03 1.36 7.91
6/29/2021 7:00:00 AM 0 32 0 8.08 1.42 8.17
6/29/2021 7:15:00 AM 0 32 0 8.15 1.35 8.41
6/29/2021 7:30:00 AM 0 32 0 8.2 1.33 8.59
6/29/2021 7:45:00 AM 0 32 0 8.25 1.36 8.74
6/29/2021 8:00:00 AM 0 32 0 8.3 1.56 8.89
6/29/2021 8:15:00 AM 0 32 0 8.37 1.32 9.02
6/29/2021 8:30:00 AM 0 32 0 8.42 1.39 9.13
6/29/2021 8:45:00 AM 0 32 0 8.48 1.39 9.25
6/29/2021 9:00:00 AM 0 32 0 8.54 1.35 9.34
6/29/2021 9:15:00 AM 0 32 0 8.6 1.36 9.44
6/29/2021 9:30:00 AM 0 32 0 8.65 1.39 9.5
6/29/2021 9:45:00 AM 0 32 0 8.72 1.64 9.57
6/29/2021 10:00:00 AM 0 32 0 8.78 1.47 9.64
6/29/2021 10:15:00 AM 0 32 0 8.83 1.48 9.68
6/29/2021 10:30:00 AM 0 32 0 8.89 1.43 9.72
6/29/2021 10:45:00 AM 0 32 0 8.94 1.6 9.75
6/29/2021 11:00:00 AM 0 32 0 8.99 1.49 9.71
6/29/2021 11:15:00 AM 0 32 0 9.02 1.42 9.63
6/29/2021 11:30:00 AM 0 32 0 9.05 1.47 9.66
6/29/2021 11:45:00 AM 0 32 0 9.03 1.43 9.51
6/29/2021 12:00:00 PM 0 32 0 9.06 1.45 9.48
6/29/2021 12:15:00 PM 0 32 0 9.11 1.38 9.55
6/29/2021 12:30:00 PM 0 32 0 9.09 1.37 9.35
6/29/2021 12:45:00 PM 0 32 0 9.11 1.33 9.51
6/29/2021 1:00:00 PM 0 32 0 9.16 1.5 9.51
6/29/2021 1:15:00 PM 0 32 0 9.16 1.4 9.45
6/29/2021 1:30:00 PM 0 32 0 9.16 2.85 9.35
6/29/2021 1:45:00 PM 0 32 0 9.19 1.39 9.44
6/29/2021 2:00:00 PM 0 32 0 9.21 1.36 9.42
6/29/2021 2:15:00 PM 0 32 0 9.18 1.33 9.13
6/29/2021 2:30:00 PM 0 32 0 9.19 1.39 9.24
6/29/2021 2:45:00 PM 0 32 0 9.2 1.35 9.11
6/29/2021 3:00:00 PM 0 32 0 9.2 1.67 9.14
6/29/2021 3:15:00 PM 0 32 0 9.2 1.37 9.02
6/29/2021 3:30:00 PM 0 32 0 9.15 1.3 8.75
6/29/2021 3:45:00 PM 0 32 0 9.15 1.34 8.8
6/29/2021 4:00:00 PM 0 32 0 9.16 1.32 8.8
6/29/2021 4:15:00 PM 0 32 0 9.11 1.65 8.68
6/29/2021 4:30:00 PM 0 32 0 9.09 1.36 8.58
6/29/2021 4:45:00 PM 0 32 0 8.96 1.36 8.12
6/29/2021 5:00:00 PM 0 32 0 8.95 1.32 8.41
6/29/2021 5:15:00 PM 0 32 0 8.98 1.41 8.5
6/29/2021 5:30:00 PM 0 32 0 8.96 1.28 8.37
6/29/2021 5:45:00 PM 0 32 0 8.89 1.22 8.21
6/29/2021 6:00:00 PM 0 32 0 8.82 1.21 8.1
6/29/2021 6:15:00 PM 0 32 0 8.65 1.17 7.62
6/29/2021 6:30:00 PM 0 32 0 8.52 1.27 7.42
6/29/2021 6:45:00 PM 0 32 0 8.41 1.25 7.23
6/29/2021 7:00:00 PM 0 32 0 8.35 1.35 7.17
6/29/2021 7:15:00 PM 0 32 0 8.31 1.2 7.27
6/29/2021 7:30:00 PM 0 32 0 8.27 1.16 7.26
6/29/2021 7:45:00 PM 0 32 0 8.18 1.14 7.01
6/29/2021 8:00:00 PM 0 32 0 8.11 1.21 6.89
6/29/2021 8:15:00 PM 0 32 0 8.05 1.17 6.81
6/29/2021 8:30:00 PM 0 32 0 8.01 1.2 6.77
6/29/2021 8:45:00 PM 0 32 0 7.98 1.34 6.72
6/29/2021 9:00:00 PM 0 32 0 7.96 1.41 6.69
6/29/2021 9:15:00 PM 0 32 0 7.94 1.4 6.66
6/29/2021 9:30:00 PM 0 32 0 7.92 1.57 6.67
6/29/2021 9:45:00 PM 0 32 0 7.91 1.47 6.64
6/29/2021 10:00:00 PM 0 32 0 7.91 1.46 6.65
6/29/2021 10:15:00 PM 0 32 0 7.9 1.48 6.66
6/29/2021 10:30:00 PM 0 32 0 7.9 1.61 6.66
6/29/2021 10:45:00 PM 0 32 0 7.9 1.5 6.66
6/29/2021 11:00:00 PM 0 32 0 7.91 1.58 6.68
6/29/2021 11:15:00 PM 0 32 0 7.91 1.57 6.7
6/29/2021 11:30:00 PM 0 32 0 7.9 1.47 6.71
6/29/2021 11:45:00 PM 0 32 0 7.91 1.46 6.75
6/30/2021 12:00:00 AM 0 32 0 7.9 2.55 6.76
6/30/2021 12:15:00 AM 0 32 0 7.9 1.56 6.76
6/30/2021 12:30:00 AM 0 32 0 7.9 1.5 6.77
6/30/2021 12:45:00 AM 0 32 0 7.9 1.62 6.8
6/30/2021 1:00:00 AM 0 32 0 7.9 1.53 6.83
6/30/2021 1:15:00 AM 0 32 0 7.9 1.5 6.84
6/30/2021 1:30:00 AM 0 32 0 7.91 1.55 6.86
6/30/2021 1:45:00 AM 0 32 0 7.91 1.61 6.88
6/30/2021 2:00:00 AM 0 32 0 7.91 1.57 6.91
6/30/2021 2:15:00 AM 0 32 0 7.91 1.65 6.92
6/30/2021 2:30:00 AM 0 32 0 7.91 1.63 6.92
6/30/2021 2:45:00 AM 0 32 0 7.91 1.57 6.9
6/30/2021 3:00:00 AM 0 32 0 7.91 1.6 6.93
6/30/2021 3:15:00 AM 0 32 0 7.91 1.66 6.94
6/30/2021 3:30:00 AM 0 32 0 7.9 1.73 6.92
6/30/2021 3:45:00 AM 0 32 0 7.86 1.62 6.93
6/30/2021 4:00:00 AM 0 32 0 7.85 1.7 6.96
6/30/2021 4:15:00 AM 0 32 0 7.85 1.92 6.97
6/30/2021 4:30:00 AM 0 32 0 7.86 1.75 6.96
6/30/2021 4:45:00 AM 0 32 0 7.85 1.81 6.95
6/30/2021 5:00:00 AM 0 32 0 7.85 1.77 6.96
6/30/2021 5:15:00 AM 0 32 0 7.87 1.75 6.99
6/30/2021 5:30:00 AM 0 32 0 7.88 1.69 7.01
6/30/2021 5:45:00 AM 0 32 0 7.89 1.51 7.07
6/30/2021 6:00:00 AM 0 32 0 7.91 1.65 7.16
6/30/2021 6:15:00 AM 0 32 0 7.92 1.37 7.27
6/30/2021 6:30:00 AM 0 32 0 7.94 1.4 7.38
6/30/2021 6:45:00 AM 0 32 0 7.98 1.38 7.6
6/30/2021 7:00:00 AM 0 32 0 8.04 1.45 7.9
6/30/2021 7:15:00 AM 0 32 0 8.11 1.37 8.23
6/30/2021 7:30:00 AM 0 32 0 8.16 1.36 8.41
6/30/2021 7:45:00 AM 0 32 0 8.22 1.29 8.56
6/30/2021 8:00:00 AM 0 32 0 8.27 1.29 8.72
6/30/2021 8:15:00 AM 0 32 0 8.33 1.42 8.86
6/30/2021 8:30:00 AM 0 32 0 8.37 1.35 8.96
6/30/2021 8:45:00 AM 0 32 0 8.43 1.6 9.1
6/30/2021 9:00:00 AM 0 32 0 8.51 1.39 9.27
6/30/2021 9:15:00 AM 0 32 0 8.55 1.43 9.31
6/30/2021 9:30:00 AM 0 32 0 8.64 1.34 9.5
6/30/2021 9:45:00 AM 0 32 0 8.69 1.46 9.56
6/30/2021 10:00:00 AM 0 32 0 8.77 1.42 9.68
6/30/2021 10:15:00 AM 0 32 0 8.82 1.51 9.73
6/30/2021 10:30:00 AM 0 32 0 8.86 1.92 9.66
6/30/2021 10:45:00 AM 0 32 0 8.88 1.37 9.67
6/30/2021 11:00:00 AM 0 32 0 8.92 1.48 9.7
6/30/2021 11:15:00 AM 0 32 0 8.95 1.44 9.77
6/30/2021 11:30:00 AM 0 32 0 9 1.33 9.84
6/30/2021 11:45:00 AM 0 32 0 9.02 1.62 9.75
6/30/2021 12:00:00 PM 0 32 0 9.04 1.56 9.72
6/30/2021 12:15:00 PM 0 32 0 9.03 1.37 9.5
6/30/2021 12:30:00 PM 0 32 0 9.03 1.48 9.52
6/30/2021 12:45:00 PM 0 32 0 9.07 1.44 9.7
6/30/2021 1:00:00 PM 0 32 0 9.08 1.37 9.64
6/30/2021 1:15:00 PM 0 32 0 9.09 1.37 9.67
6/30/2021 1:30:00 PM 0 32 0 9.07 1.64 9.57
6/30/2021 1:45:00 PM 0 32 0 9.11 1.34 9.77
6/30/2021 2:00:00 PM 0 32 0 9.15 1.34 9.67
6/30/2021 2:15:00 PM 0 32 0 9.16 1.3 9.66
6/30/2021 2:30:00 PM 0 32 0 9.18 1.4 9.65
6/30/2021 2:45:00 PM 0 32 0 9.17 1.28 9.34
6/30/2021 3:00:00 PM 0 32 0 9.17 1.34 9.49
6/30/2021 3:15:00 PM 0 32 0 9.16 1.41 9.18
6/30/2021 3:30:00 PM 0 32 0 8.95 1.32 8.13
6/30/2021 3:45:00 PM 0 32 0 8.69 3.45 7.71
6/30/2021 4:00:00 PM 0 32 0 8.6 5.05 7.64
6/30/2021 4:15:00 PM 0 32 0 8.15 46.49 7.58
6/30/2021 4:30:00 PM 0 32 0 8.07 47.86 7.56
6/30/2021 4:45:00 PM 0 32 0 8.12 35.39 7.54
6/30/2021 5:00:00 PM 0 32 0 8.16 30 7.7
6/30/2021 5:15:00 PM 0 32 0 8.18 26.39 7.75
6/30/2021 5:30:00 PM 0 32 0 8.23 20.09 7.87
6/30/2021 5:45:00 PM 0 32 0 8.33 18.11 8.17
6/30/2021 6:00:00 PM 0 32 0 8.35 10.09 8.14
6/30/2021 6:15:00 PM 0 32 0 8.28 7.15 8
6/30/2021 6:30:00 PM 0 32 0 8.2 6.08 7.82
6/30/2021 6:45:00 PM 0 32 0 8.15 5.49 7.74
6/30/2021 7:00:00 PM 0 32 0 8.12 6.06 7.64
6/30/2021 7:15:00 PM 0 32 0 8.06 7.33 7.53
6/30/2021 7:30:00 PM 0 32 0 8.04 7.28 7.51
6/30/2021 7:45:00 PM 0 32 0 8.02 7.77 7.44
6/30/2021 8:00:00 PM 0 32 0 7.98 8.58 7.27
6/30/2021 8:15:00 PM 0 32 0 7.96 8.78 7.21
6/30/2021 8:30:00 PM 0 32 0 7.95 9.29 7.19
6/30/2021 8:45:00 PM 0 32 0 7.94 7.69 7.13
6/30/2021 9:00:00 PM 0 32 0 7.93 6.75 7.1
6/30/2021 9:15:00 PM 0 32 0 7.92 5.65 7.1
6/30/2021 9:30:00 PM 0 32 0 7.92 5.16 7.1
6/30/2021 9:45:00 PM 0 32 0 7.92 5.91 7.11
6/30/2021 10:00:00 PM 0 32 0 7.92 4.72 7.12
6/30/2021 10:15:00 PM 0 32 0 7.91 4.39 7.14
6/30/2021 10:30:00 PM 0 32 0 7.92 4.98 7.15
6/30/2021 10:45:00 PM 0 32 0 7.92 4.83 7.15
6/30/2021 11:00:00 PM 0 32 0 7.92 4.55 7.17
6/30/2021 11:15:00 PM 0 32 0 7.91 4.86 7.16
6/30/2021 11:30:00 PM 0 32 0 7.91 4.63 7.16
6/30/2021 11:45:00 PM 0 32 0 7.91 4.48 7.17
7/1/2021 12:00:00 AM 0 32 0 7.91 4.25 7.18
7/1/2021 12:15:00 AM 0 32 0 7.91 3.93 7.18
7/1/2021 12:30:00 AM 0 32 0 7.91 3.78 7.2
7/1/2021 12:45:00 AM 0 32 0 7.91 3.5 7.2
7/1/2021 1:00:00 AM 0 32 0 7.91 3.39 7.22
7/1/2021 1:15:00 AM 0 32 0 7.9 3.24 7.22
7/1/2021 1:30:00 AM 0 32 0 7.9 3.55 7.23
7/1/2021 1:45:00 AM 0 32 0 7.9 3.22 7.23
7/1/2021 2:00:00 AM 0 32 0 7.9 3.25 7.24
7/1/2021 2:15:00 AM 0 32 0 7.9 3.05 7.26
7/1/2021 2:30:00 AM 0 32 0 7.91 2.97 7.25
7/1/2021 2:45:00 AM 0 32 0 7.91 2.94 7.25
7/1/2021 3:00:00 AM 0 32 0 7.9 2.9 7.26
7/1/2021 3:15:00 AM 0 32 0 7.9 5.77 7.27
7/1/2021 3:30:00 AM 0 32 0 7.89 3.04 7.27
7/1/2021 3:45:00 AM 0 32 0 7.89 2.91 7.28
7/1/2021 4:00:00 AM 0 32 0 7.89 2.83 7.28
7/1/2021 4:15:00 AM 0 32 0 7.89 3.04 7.29
7/1/2021 4:30:00 AM 0 32 0 7.88 2.9 7.28
7/1/2021 4:45:00 AM 0 32 0 7.88 2.81 7.27
7/1/2021 5:00:00 AM 0 32 0 7.88 16.82 7.28
7/1/2021 5:15:00 AM 0 32 0 7.88 3.03 7.29
7/1/2021 5:30:00 AM 0 32 0 7.88 2.86 7.31
7/1/2021 5:45:00 AM 0 32 0 7.87 2.6 7.32
7/1/2021 6:00:00 AM 0 32 0 7.88 3.08 7.36
7/1/2021 6:15:00 AM 0 32 0 7.88 2.47 7.38
7/1/2021 6:30:00 AM 0 32 0 7.89 2.44 7.42
7/1/2021 6:45:00 AM 0 32 0 7.91 2.15 7.51
7/1/2021 7:00:00 AM 0 32 0 7.91 2.13 7.51
7/1/2021 7:15:00 AM 0 32 0 7.93 1.94 7.64
7/1/2021 7:30:00 AM 0 32 0 7.97 1.94 7.83
7/1/2021 7:45:00 AM 0 32 0 8.04 2 8.11
7/1/2021 8:00:00 AM 0 32 0 8.07 1.76 8.18
7/1/2021 8:15:00 AM 0 32 0 8.1 1.77 8.31
7/1/2021 8:30:00 AM 0 32 0 8.19 1.85 8.57
7/1/2021 8:45:00 AM 0 32 0 8.27 1.75 8.84
7/1/2021 9:00:00 AM 0 32 0 8.35 1.7 9.03
7/1/2021 9:15:00 AM 0 32 0 8.39 1.68 9.04
7/1/2021 9:30:00 AM 0 32 0 8.44 1.72 9.18
7/1/2021 9:45:00 AM 0 32 0 8.5 1.68 9.3
7/1/2021 10:00:00 AM 0 32 0 8.51 1.66 9.24
7/1/2021 10:15:00 AM 0 32 0 8.54 1.65 9.27
7/1/2021 10:30:00 AM 0 32 0 8.5 1.65 9.03
7/1/2021 10:45:00 AM 0 32 0 8.55 1.66 9.22
7/1/2021 11:00:00 AM 0 32 0 8.6 1.57 9.35
7/1/2021 11:15:00 AM 0 32 0 8.63 1.58 9.44
7/1/2021 11:30:00 AM 0 32 0 8.67 1.55 9.56
7/1/2021 11:45:00 AM 0 32 0 8.7 1.56 9.63
7/1/2021 12:00:00 PM 0 32 0 8.74 1.49 9.7
7/1/2021 12:15:00 PM 0 32 0 8.8 1.58 9.87
7/1/2021 12:30:00 PM 0 32 0 8.82 1.52 9.77
7/1/2021 12:45:00 PM 0 32 0 8.81 1.55 9.69
7/1/2021 1:00:00 PM 0 32 0 8.87 1.54 9.93
7/1/2021 1:15:00 PM 0 32 0 8.9 1.58 9.95
7/1/2021 1:30:00 PM 0 32 0 8.93 1.47 10
7/1/2021 1:45:00 PM 0 32 0 8.94 1.53 9.95
7/1/2021 2:00:00 PM 0 32 0 8.91 1.54 9.73
7/1/2021 2:15:00 PM 0 32 0 8.89 1.53 9.66
7/1/2021 2:30:00 PM 0 32 0 8.86 1.56 9.43
7/1/2021 2:45:00 PM 0 32 0 8.76 1.54 9.03
7/1/2021 3:00:00 PM 0 32 0 8.64 1.51 8.72
7/1/2021 3:15:00 PM 0 32 0 8.69 1.58 9.08
7/1/2021 3:30:00 PM 0 32 0 8.73 1.47 9.27
7/1/2021 3:45:00 PM 0 32 0 8.59 1.4 8.76
7/1/2021 4:00:00 PM 0 32 0 8.34 1.43 8.1
7/1/2021 4:15:00 PM 0 32 0 8.3 1.5 8.23
7/1/2021 4:30:00 PM 0 32 0 8.32 1.58 8.4
7/1/2021 4:45:00 PM 0 32 0 8.29 1.88 8.31
7/1/2021 5:00:00 PM 0 32 0 8.19 2.02 8.18
7/1/2021 5:15:00 PM 0 32 0 8.15 3.76 8.12
7/1/2021 5:30:00 PM 0 32 0 8.2 5.11 8.38
7/1/2021 5:45:00 PM 0 32 0 8.21 5.1 8.38
7/1/2021 6:00:00 PM 0 32 0 8.19 4.1 8.28
7/1/2021 6:15:00 PM 0 32 0 8.22 3.39 8.37
7/1/2021 6:30:00 PM 0 32 0 8.23 2.85 8.38
7/1/2021 6:45:00 PM 0 32 0 8.21 2.33 8.31
7/1/2021 7:00:00 PM 0 32 0 8.18 2.11 8.19
7/1/2021 7:15:00 PM 0 32 0 8.14 2.02 8.05
7/1/2021 7:30:00 PM 0 32 0 8.12 1.77 8.03
7/1/2021 7:45:00 PM 0 32 0 8.08 1.7 7.87
7/1/2021 8:00:00 PM 0 32 0 8.01 1.7 7.7
7/1/2021 8:15:00 PM 0 32 0 7.98 1.72 7.6
7/1/2021 8:30:00 PM 0 32 0 7.97 1.72 7.57
7/1/2021 8:45:00 PM 0 32 0 7.94 1.71 7.53
7/1/2021 9:00:00 PM 0 32 0 7.92 1.72 7.49
7/1/2021 9:15:00 PM 0 32 0 7.9 2.12 7.47
7/1/2021 9:30:00 PM 0 32 0 7.9 2.29 7.46
7/1/2021 9:45:00 PM 0 32 0 7.89 2.21 7.46
7/1/2021 10:00:00 PM 0 32 0 7.88 2.21 7.46
7/1/2021 10:15:00 PM 0 32 0 7.88 2.28 7.47
7/1/2021 10:30:00 PM 0 32 0 7.87 2.27 7.48
7/1/2021 10:45:00 PM 0 32 0 7.87 2.3 7.5
7/1/2021 11:00:00 PM 0 32 0 7.88 2.33 7.52
7/1/2021 11:15:00 PM 0 32 0 7.87 2.41 7.53
7/1/2021 11:30:00 PM 0 32 0 7.87 2.37 7.55
7/1/2021 11:45:00 PM 0 32 0 7.87 2.8 7.56
7/2/2021 12:00:00 AM 0 32 0 7.87 2.3 7.57
7/2/2021 12:15:00 AM 0 32 0 7.87 2.35 7.57
7/2/2021 12:30:00 AM 0 32 0 7.86 2.47 7.58
7/2/2021 12:45:00 AM 0 32 0 7.86 2.38 7.6
7/2/2021 1:00:00 AM 0 32 0 7.86 2.39 7.6
7/2/2021 1:15:00 AM 0 32 0 7.86 4.17 7.6
7/2/2021 1:30:00 AM 0 32 0 7.86 2.38 7.6
7/2/2021 1:45:00 AM 0 32 0 7.86 2.4 7.61
7/2/2021 2:00:00 AM 0 32 0 7.85 2.36 7.61
7/2/2021 2:15:00 AM 0 32 0 7.84 2.48 7.62
7/2/2021 2:30:00 AM 0 32 0 7.84 2.55 7.61
7/2/2021 2:45:00 AM 0 32 0 7.85 2.51 7.63
7/2/2021 3:00:00 AM 0 32 0 7.84 2.34 7.63
7/2/2021 3:15:00 AM 0 32 0 7.85 2.31 7.63
7/2/2021 3:30:00 AM 0 32 0 7.85 2.23 7.63
7/2/2021 3:45:00 AM 0 32 0 7.85 2.39 7.65
7/2/2021 4:00:00 AM 0 32 0 7.89 2.84 7.91
7/2/2021 4:15:00 AM 0 32 0 7.85 6.36 8.1
7/2/2021 4:30:00 AM 0 32 0 7.82 81.7 8.22
7/2/2021 4:45:00 AM 0 32 0 7.73 81.5 8.27
7/2/2021 5:00:00 AM 0 32 0 7.7 53.34 8.16
7/2/2021 5:15:00 AM 0 32 0 7.7 43.99 8.06
7/2/2021 5:30:00 AM 0 32 0 7.72 34.58 8.01
7/2/2021 5:45:00 AM 0 32 0 7.75 20.43 8.01
7/2/2021 6:00:00 AM 0 32 0 7.8 15.91 8.07
7/2/2021 6:15:00 AM 0 32 0 7.8 32.01 8.11
7/2/2021 6:30:00 AM 0 32 0 7.81 36.07 8.17
7/2/2021 6:45:00 AM 0 32 0 7.84 37.32 8.2
7/2/2021 7:00:00 AM 0 32 0 7.86 36.75 8.26
7/2/2021 7:15:00 AM 0 32 0 7.87 31.15 8.31
7/2/2021 7:30:00 AM 0 32 0 7.89 22.1 8.36
7/2/2021 7:45:00 AM 0 32 0 7.92 17.89 8.45
7/2/2021 8:00:00 AM 0 32 0 7.95 15.47 8.51
7/2/2021 8:15:00 AM 0 32 0 8 18.62 8.68
7/2/2021 8:30:00 AM 0 32 0 8.04 21.16 8.71
7/2/2021 8:45:00 AM 0 32 0 8.05 18.58 8.74
7/2/2021 9:00:00 AM 0 32 0 8.1 14.27 8.89
7/2/2021 9:15:00 AM 0 32 0 8.11 11.88 8.81
7/2/2021 9:30:00 AM 0 32 0 8.1 10.62 8.83
7/2/2021 9:45:00 AM 0 32 0 8.14 9.75 8.91
7/2/2021 10:00:00 AM 0 32 0 8.13 8.13 8.86
7/2/2021 10:15:00 AM 0 32 0 8.27 8.03 9.19
7/2/2021 10:30:00 AM 0 32 0 8.35 8.12 9.35
7/2/2021 10:45:00 AM 0 32 0 8.37 8.53 9.32
7/2/2021 11:00:00 AM 0 32 0 8.4 8.97 9.39
7/2/2021 11:15:00 AM 0 32 0 8.39 9.28 9.27
7/2/2021 11:30:00 AM 0 32 0 8.38 9.63 9.22
7/2/2021 11:45:00 AM 0 32 0 8.42 9.15 9.38
7/2/2021 12:00:00 PM 0 32 0 8.5 8.68 9.37
7/2/2021 12:15:00 PM 0 32 0 8.52 8 9.39
7/2/2021 12:30:00 PM 0 32 0 8.55 7.55 9.45
7/2/2021 12:45:00 PM 0 32 0 8.44 7.47 9.05
7/2/2021 1:00:00 PM 0 32 0 8.48 6.65 9.25
7/2/2021 1:15:00 PM 0 32 0 8.46 5.92 9.23
7/2/2021 1:30:00 PM 0 32 0 8.47 5.44 9.28
7/2/2021 1:45:00 PM 0 32 0 8.49 5.31 9.28
7/2/2021 2:00:00 PM 0 32 0 8.46 4.8 9.12
7/2/2021 2:15:00 PM 0 32 0 8.42 4.62 8.97
7/2/2021 2:30:00 PM 0 32 0 8.36 4 8.79
7/2/2021 2:45:00 PM 0 32 0 8.36 4.15 8.96
7/2/2021 3:00:00 PM 0 32 0 8.51 3.66 9.24
7/2/2021 3:15:00 PM 0 32 0 8.55 3.83 9.31
7/2/2021 3:30:00 PM 0 32 0 8.59 3.89 9.38
7/2/2021 3:45:00 PM 0 32 0 8.62 5.14 9.41
7/2/2021 4:00:00 PM 0 32 0 8.63 4.91 9.37
7/2/2021 4:15:00 PM 0 32 0 8.63 4.28 9.34
7/2/2021 4:30:00 PM 0 32 0 8.6 3.63 9.16
7/2/2021 4:45:00 PM 0 32 0 8.54 3.37 9.02
7/2/2021 5:00:00 PM 0 32 0 8.52 3.32 8.96
7/2/2021 5:15:00 PM 0 32 0 8.56 3.05 9.11
7/2/2021 5:30:00 PM 0 32 0 8.53 2.95 8.95
7/2/2021 5:45:00 PM 0 32 0 8.46 2.91 8.75
7/2/2021 6:00:00 PM 0 32 0 8.46 2.8 8.84
7/2/2021 6:15:00 PM 0 32 0 8.45 2.85 8.85
7/2/2021 6:30:00 PM 0 32 0 8.38 2.74 8.68
7/2/2021 6:45:00 PM 0 32 0 8.33 2.7 8.63
7/2/2021 7:00:00 PM 0 32 0 8.28 2.59 8.56
7/2/2021 7:15:00 PM 0 32 0 8.19 2.53 8.41
7/2/2021 7:30:00 PM 0 32 0 8.14 2.48 8.35
7/2/2021 7:45:00 PM 0 32 0 8.09 2.46 8.24
7/2/2021 8:00:00 PM 0 32 0 8.03 2.49 8.14
7/2/2021 8:15:00 PM 0 32 0 8 2.37 8.07
7/2/2021 8:30:00 PM 0 32 0 7.95 2.36 7.9
7/2/2021 8:45:00 PM 0 32 0 7.91 2.48 7.8
7/2/2021 9:00:00 PM 0 32 0 7.87 2.63 7.73
7/2/2021 9:15:00 PM 0 32 0 7.85 2.93 7.71
7/2/2021 9:30:00 PM 0 32 0 7.85 4.53 7.77
7/2/2021 9:45:00 PM 0 32 0 7.81 8.46 7.78
7/2/2021 10:00:00 PM 0 32 0 7.77 12.23 7.71
7/2/2021 10:15:00 PM 0 32 0 7.77 10.23 7.66
7/2/2021 10:30:00 PM 0 32 0 7.76 8.43 7.66
7/2/2021 10:45:00 PM 0 32 0 7.76 7.1 7.67
7/2/2021 11:00:00 PM 0 32 0 7.77 5.88 7.69
7/2/2021 11:15:00 PM 0 32 0 7.78 4.97 7.73
7/2/2021 11:30:00 PM 0 32 0 7.79 4.38 7.76
7/2/2021 11:45:00 PM 0 32 0 7.79 4.26 7.81
7/3/2021 12:00:00 AM 0 32 0 7.79 4.44 7.81
7/3/2021 12:15:00 AM 0 32 0 7.8 4.31 7.84
7/3/2021 12:30:00 AM 0 32 0 7.8 4.37 7.86
7/3/2021 12:45:00 AM 0 32 0 7.8 4.67 7.87
7/3/2021 1:00:00 AM 0 32 0 7.81 4.77 7.9
7/3/2021 1:15:00 AM 0 32 0 7.81 4.7 7.9
7/3/2021 1:30:00 AM 0 32 0 7.8 4.55 7.91
7/3/2021 1:45:00 AM 0 32 0 7.8 4.64 7.91
7/3/2021 2:00:00 AM 0 32 0 7.79 4.29 7.91
7/3/2021 2:15:00 AM 0 32 0 7.8 4.12 7.92
7/3/2021 2:30:00 AM 0 32 0 7.8 4.07 7.93
7/3/2021 2:45:00 AM 0 32 0 7.8 3.96 7.93
7/3/2021 3:00:00 AM 0 32 0 7.8 3.9 7.97
7/3/2021 3:15:00 AM 0 32 0 7.79 3.55 7.97
7/3/2021 3:30:00 AM 0 32 0 7.79 3.77 7.99
7/3/2021 3:45:00 AM 0 32 0 7.79 3.9 7.99
7/3/2021 4:00:00 AM 0 32 0 7.78 3.99 7.95
7/3/2021 4:15:00 AM 0 32 0 7.77 4.05 7.94
7/3/2021 4:30:00 AM 0 32 0 7.78 3.94 7.94
7/3/2021 4:45:00 AM 0 32 0 7.78 3.89 7.95
7/3/2021 5:00:00 AM 0 32 0 7.79 3.91 8
7/3/2021 5:15:00 AM 0 32 0 7.79 3.7 8.01
7/3/2021 5:30:00 AM 0 32 0 7.78 3.8 8.05
7/3/2021 5:45:00 AM 0 32 0 7.79 3.53 8.06
7/3/2021 6:00:00 AM 0 32 0 7.8 3.51 8.12
7/3/2021 6:15:00 AM 0 32 0 7.83 3.3 8.26
7/3/2021 6:30:00 AM 0 32 0 7.86 3.33 8.31
7/3/2021 6:45:00 AM 0 32 0 7.86 3.13 8.33
7/3/2021 7:00:00 AM 0 32 0 7.88 3.08 8.42
7/3/2021 7:15:00 AM 0 32 0 7.9 3.08 8.5
7/3/2021 7:30:00 AM 0 32 0 7.94 3.1 8.67
7/3/2021 7:45:00 AM 0 32 0 8.01 3.29 8.9
7/3/2021 8:00:00 AM 0 32 0 8.11 3.3 9.2
7/3/2021 8:15:00 AM 0 32 0 8.21 3.62 9.42
7/3/2021 8:30:00 AM 0 32 0 8.28 3.62 9.5
7/3/2021 8:45:00 AM 0 32 0 8.27 3.64 9.38
7/3/2021 9:00:00 AM 0 32 0 8.26 3.45 9.41
7/3/2021 9:15:00 AM 0 32 0 8.28 3.32 9.42
7/3/2021 9:30:00 AM 0 32 0 8.25 3.18 9.29
7/3/2021 9:45:00 AM 0 32 0 8.33 3.24 9.53
7/3/2021 10:00:00 AM 0 32 0 8.33 3.14 9.44
7/3/2021 10:15:00 AM 0 32 0 8.36 2.93 9.6
7/3/2021 10:30:00 AM 0 32 0 8.4 2.91 9.63
7/3/2021 10:45:00 AM 0 32 0 8.44 2.86 9.72
7/3/2021 11:00:00 AM 0 32 0 8.46 2.79 9.69
7/3/2021 11:15:00 AM 0 32 0 8.48 2.63 9.67
7/3/2021 11:30:00 AM 0 32 0 8.51 2.71 9.79
7/3/2021 11:45:00 AM 0 32 0 8.53 2.57 9.75
7/3/2021 12:00:00 PM 0 32 0 8.54 2.53 9.63
7/3/2021 12:15:00 PM 0 32 0 8.54 2.49 9.63
7/3/2021 12:30:00 PM 0 32 0 8.53 2.52 9.64
7/3/2021 12:45:00 PM 0 32 0 8.58 2.32 9.7
7/3/2021 1:00:00 PM 0 32 0 8.59 2.3 9.71
7/3/2021 1:15:00 PM 0 32 0 8.63 2.35 9.81
7/3/2021 1:30:00 PM 0 32 0 8.65 2.3 9.81
7/3/2021 1:45:00 PM 0 32 0 8.69 2.36 9.95
7/3/2021 2:00:00 PM 0 32 0 8.75 2.31 10
7/3/2021 2:15:00 PM 0 32 0 8.78 2.35 10.03
7/3/2021 2:30:00 PM 0 32 0 8.75 2.32 9.85
7/3/2021 2:45:00 PM 0 32 0 8.74 2.24 9.85
7/3/2021 3:00:00 PM 0 32 0 8.75 2.17 9.83
7/3/2021 3:15:00 PM 0 32 0 8.72 2.18 9.61
7/3/2021 3:30:00 PM 0 32 0 8.72 2.16 9.72
7/3/2021 3:45:00 PM 0 32 0 8.66 2.2 9.39
7/3/2021 4:00:00 PM 0 32 0 8.67 2.22 9.51
7/3/2021 4:15:00 PM 0 32 0 8.63 2.11 9.44
7/3/2021 4:30:00 PM 0 32 0 8.61 2.12 9.41
7/3/2021 4:45:00 PM 0 32 0 8.64 2.06 9.62
7/3/2021 5:00:00 PM 0 32 0 8.66 2.14 9.68
7/3/2021 5:15:00 PM 0 32 0 8.68 2.08 9.72
7/3/2021 5:30:00 PM 0 32 0 8.65 2.15 9.51
7/3/2021 5:45:00 PM 0 32 0 8.58 2 9.27
7/3/2021 6:00:00 PM 0 32 0 8.54 2.06 9.21
7/3/2021 6:15:00 PM 0 32 0 8.53 2.04 9.25
7/3/2021 6:30:00 PM 0 32 0 8.47 1.97 9.13
7/3/2021 6:45:00 PM 0 32 0 8.42 1.92 9.05
7/3/2021 7:00:00 PM 0 32 0 8.31 1.9 8.76
7/3/2021 7:15:00 PM 0 32 0 8.28 1.92 8.77
7/3/2021 7:30:00 PM 0 32 0 8.23 1.89 8.7
7/3/2021 7:45:00 PM 0 32 0 8.15 1.92 8.52
7/3/2021 8:00:00 PM 0 32 0 8.08 1.96 8.37
7/3/2021 8:15:00 PM 0 32 0 8.02 1.9 8.23
7/3/2021 8:30:00 PM 0 32 0 7.95 1.91 8.08
7/3/2021 8:45:00 PM 0 32 0 7.9 1.91 7.91
7/3/2021 9:00:00 PM 0 32 0 7.85 1.93 7.82
7/3/2021 9:15:00 PM 0 32 0 7.81 2.11 7.77
7/3/2021 9:30:00 PM 0 32 0 7.79 2.1 7.73
7/3/2021 9:45:00 PM 0 32 0 7.77 2.26 7.72
7/3/2021 10:00:00 PM 0 32 0 7.84 2.27 7.68
7/3/2021 10:15:00 PM 0 32 0 7.83 2.26 7.71
7/3/2021 10:30:00 PM 0 32 0 7.79 2.37 7.72
7/3/2021 10:45:00 PM 0 32 0 7.76 2.22 7.74
7/3/2021 11:00:00 PM 0 32 0 7.76 2.19 7.76
7/3/2021 11:15:00 PM 0 32 0 7.74 2.39 7.75
7/3/2021 11:30:00 PM 0 32 0 7.73 2.42 7.77
7/3/2021 11:45:00 PM 0 32 0 7.72 2.35 7.79
7/4/2021 12:00:00 AM 0 32 0 7.72 2.47 7.79
7/4/2021 12:15:00 AM 0 32 0 7.72 2.49 7.81
7/4/2021 12:30:00 AM 0 32 0 7.71 2.3 7.83
7/4/2021 12:45:00 AM 0 32 0 7.7 2.21 7.84
7/4/2021 1:00:00 AM 0 32 0 7.71 2.17 7.86
7/4/2021 1:15:00 AM 0 32 0 7.7 2.21 7.88
7/4/2021 1:30:00 AM 0 32 0 7.72 2.38 7.89
7/4/2021 1:45:00 AM 0 32 0 7.74 2.17 7.9
7/4/2021 2:00:00 AM 0 32 0 7.76 2.13 7.92
7/4/2021 2:15:00 AM 0 32 0 7.76 2.3 7.93
7/4/2021 2:30:00 AM 0 32 0 7.77 2.37 7.95
7/4/2021 2:45:00 AM 0 32 0 7.76 2.24 7.95
7/4/2021 3:00:00 AM 0 32 0 7.75 2.21 7.97
7/4/2021 3:15:00 AM 0 32 0 7.74 2.17 7.99
7/4/2021 3:30:00 AM 0 32 0 7.73 2.21 7.99
7/4/2021 3:45:00 AM 0 32 0 7.73 2.22 8.01
7/4/2021 4:00:00 AM 0 32 0 7.74 2.22 8.01
7/4/2021 4:15:00 AM 0 32 0 7.74 2.3 8.03
7/4/2021 4:30:00 AM 0 32 0 7.75 2.23 8.04
7/4/2021 4:45:00 AM 0 32 0 7.75 2.31 8.04
7/4/2021 5:00:00 AM 0 32 0 7.75 2.42 8.04
7/4/2021 5:15:00 AM 0 32 0 7.76 2.25 8.06
7/4/2021 5:30:00 AM 0 32 0 7.77 2.19 8.07
7/4/2021 5:45:00 AM 0 32 0 7.77 2.27 8.1
7/4/2021 6:00:00 AM 0 32 0 7.78 1.96 8.19
7/4/2021 6:15:00 AM 0 32 0 7.81 1.89 8.31
7/4/2021 6:30:00 AM 0 32 0 7.85 1.75 8.46
7/4/2021 6:45:00 AM 0 32 0 7.89 1.72 8.66
7/4/2021 7:00:00 AM 0 32 0 7.94 1.71 8.83
7/4/2021 7:15:00 AM 0 32 0 7.99 1.72 9.02
7/4/2021 7:30:00 AM 0 32 0 8.03 1.65 9.1
7/4/2021 7:45:00 AM 0 32 0 8.11 1.64 9.32
7/4/2021 8:00:00 AM 0 32 0 8.18 1.68 9.49
7/4/2021 8:15:00 AM 0 32 0 8.2 1.64 9.46
7/4/2021 8:30:00 AM 0 32 0 8.28 1.64 9.68
7/4/2021 8:45:00 AM 0 32 0 8.33 1.56 9.73
7/4/2021 9:00:00 AM 0 32 0 8.4 1.61 9.9
7/4/2021 9:15:00 AM 0 32 0 8.46 1.53 9.96
7/4/2021 9:30:00 AM 0 32 0 8.5 1.67 10.03
7/4/2021 9:45:00 AM 0 32 0 8.55 1.56 10.12
7/4/2021 10:00:00 AM 0 32 0 8.6 1.48 10.18
7/4/2021 10:15:00 AM 0 32 0 8.64 1.57 10.27
7/4/2021 10:30:00 AM 0 32 0 8.67 1.55 10.29
7/4/2021 10:45:00 AM 0 32 0 8.68 1.55 10.27
7/4/2021 11:00:00 AM 0 32 0 8.66 1.55 10.21
7/4/2021 11:15:00 AM 0 32 0 8.68 1.6 10.23
7/4/2021 11:30:00 AM 0 32 0 8.68 1.54 10.17
7/4/2021 11:45:00 AM 0 32 0 8.71 1.54 10.29
7/4/2021 12:00:00 PM 0 32 0 8.76 1.52 10.34
7/4/2021 12:15:00 PM 0 32 0 8.75 1.57 10.26
7/4/2021 12:30:00 PM 0 32 0 8.76 1.58 10.23
7/4/2021 12:45:00 PM 0 32 0 8.78 1.52 10.27
7/4/2021 1:00:00 PM 0 32 0 8.79 1.54 10.25
7/4/2021 1:15:00 PM 0 32 0 8.83 1.6 10.48
7/4/2021 1:30:00 PM 0 32 0 8.8 1.49 10.21
7/4/2021 1:45:00 PM 0 32 0 8.83 1.55 10.35
7/4/2021 2:00:00 PM 0 32 0 8.9 1.42 10.47
7/4/2021 2:15:00 PM 0 32 0 8.93 1.54 10.49
7/4/2021 2:30:00 PM 0 32 0 8.96 1.57 10.51
7/4/2021 2:45:00 PM 0 32 0 8.95 1.69 10.49
7/4/2021 3:00:00 PM 0 32 0 8.96 1.55 10.41
7/4/2021 3:15:00 PM 0 32 0 8.98 1.48 10.38
7/4/2021 3:30:00 PM 0 32 0 9 1.62 10.45
7/4/2021 3:45:00 PM 0 32 0 9.01 1.57 10.45
7/4/2021 4:00:00 PM 0 32 0 8.99 1.61 10.27
7/4/2021 4:15:00 PM 0 32 0 8.97 1.52 10.21
7/4/2021 4:30:00 PM 0 32 0 8.96 1.59 10.14
7/4/2021 4:45:00 PM 0 32 0 8.93 1.6 9.97
7/4/2021 5:00:00 PM 0 32 0 8.91 1.52 9.91
7/4/2021 5:15:00 PM 0 32 0 8.88 1.54 9.81
7/4/2021 5:30:00 PM 0 32 0 8.85 1.5 9.67
7/4/2021 5:45:00 PM 0 32 0 8.8 1.61 9.52
7/4/2021 6:00:00 PM 0 32 0 8.72 1.47 9.3
7/4/2021 6:15:00 PM 0 32 0 8.64 1.5 9.14
7/4/2021 6:30:00 PM 0 32 0 8.53 1.58 8.96
7/4/2021 6:45:00 PM 0 32 0 8.42 1.47 8.8
7/4/2021 7:00:00 PM 0 32 0 8.32 1.43 8.64
7/4/2021 7:15:00 PM 0 32 0 8.18 1.34 8.37
7/4/2021 7:30:00 PM 0 32 0 8.07 1.43 8.19
7/4/2021 7:45:00 PM 0 32 0 7.98 1.39 8.07
7/4/2021 8:00:00 PM 0 32 0 7.91 1.41 7.94
7/4/2021 8:15:00 PM 0 32 0 7.85 1.4 7.85
7/4/2021 8:30:00 PM 0 32 0 7.82 1.43 7.76
7/4/2021 8:45:00 PM 0 32 0 7.8 1.41 7.66
7/4/2021 9:00:00 PM 0 32 0 7.78 1.44 7.61
7/4/2021 9:15:00 PM 0 32 0 7.76 1.58 7.57
7/4/2021 9:30:00 PM 0 32 0 7.74 1.62 7.55
7/4/2021 9:45:00 PM 0 32 0 7.74 1.7 7.55
7/4/2021 10:00:00 PM 0 32 0 7.74 1.68 7.55
7/4/2021 10:15:00 PM 0 32 0 7.73 1.73 7.58
7/4/2021 10:30:00 PM 0 32 0 7.72 1.63 7.59
7/4/2021 10:45:00 PM 0 32 0 7.72 1.77 7.62
7/4/2021 11:00:00 PM 0 32 0 7.73 1.74 7.64
7/4/2021 11:15:00 PM 0 32 0 7.72 1.7 7.66
7/4/2021 11:30:00 PM 0 32 0 7.72 1.72 7.68
7/4/2021 11:45:00 PM 0 32 0 7.72 1.73 7.7
7/5/2021 12:00:00 AM 0 32 0 7.71 1.79 7.72
7/5/2021 12:15:00 AM 0 32 0 7.71 1.74 7.74
7/5/2021 12:30:00 AM 0 32 0 7.7 1.8 7.76
7/5/2021 12:45:00 AM 0 32 0 7.72 1.8 7.79
7/5/2021 1:00:00 AM 0 32 0 7.71 1.83 7.8
7/5/2021 1:15:00 AM 0 32 0 7.71 1.81 7.81
7/5/2021 1:30:00 AM 0 32 0 7.7 1.88 7.83
7/5/2021 1:45:00 AM 0 32 0 7.7 1.78 7.84
7/5/2021 2:00:00 AM 0 32 0 7.7 1.7 7.87
7/5/2021 2:15:00 AM 0 32 0 7.69 1.72 7.88
7/5/2021 2:30:00 AM 0 32 0 7.7 1.77 7.9
7/5/2021 2:45:00 AM 0 32 0 7.7 1.86 7.93
7/5/2021 3:00:00 AM 0 32 0 7.7 1.82 7.93
7/5/2021 3:15:00 AM 0 32 0 7.69 1.79 7.95
7/5/2021 3:30:00 AM 0 32 0 7.69 1.83 7.97
7/5/2021 3:45:00 AM 0 32 0 7.68 1.8 7.99
7/5/2021 4:00:00 AM 0 32 0 7.69 1.85 7.99
7/5/2021 4:15:00 AM 0 32 0 7.68 1.72 8.01
7/5/2021 4:30:00 AM 0 32 0 7.68 1.82 8.03
7/5/2021 4:45:00 AM 0 32 0 7.67 1.88 8.04
7/5/2021 5:00:00 AM 0 32 0 7.67 1.85 8.05
7/5/2021 5:15:00 AM 0 32 0 7.67 1.72 8.07
7/5/2021 5:30:00 AM 0 32 0 7.68 1.59 8.09
7/5/2021 5:45:00 AM 0 32 0 7.7 1.5 8.18
7/5/2021 6:00:00 AM 0 32 0 7.72 1.57 8.3
7/5/2021 6:15:00 AM 0 32 0 7.75 1.4 8.44
7/5/2021 6:30:00 AM 0 32 0 7.79 1.43 8.63
7/5/2021 6:45:00 AM 0 32 0 7.84 1.38 8.83
7/5/2021 7:00:00 AM 0 32 0 7.91 1.34 9.05
7/5/2021 7:15:00 AM 0 32 0 7.98 1.33 9.28
7/5/2021 7:30:00 AM 0 32 0 8.06 1.41 9.48
7/5/2021 7:45:00 AM 0 32 0 8.14 1.34 9.7
7/5/2021 8:00:00 AM 0 32 0 8.23 1.32 9.87
7/5/2021 8:15:00 AM 0 32 0 8.31 1.34 10.06
7/5/2021 8:30:00 AM 0 32 0 8.39 1.32 10.2
7/5/2021 8:45:00 AM 0 32 0 8.46 1.37 10.34
7/5/2021 9:00:00 AM 0 32 0 8.53 1.38 10.48
7/5/2021 9:15:00 AM 0 32 0 8.6 1.29 10.63
7/5/2021 9:30:00 AM 0 32 0 8.67 1.36 10.74
7/5/2021 9:45:00 AM 0 32 0 8.72 1.35 10.85
7/5/2021 10:00:00 AM 0 32 0 8.78 1.36 10.95
7/5/2021 10:15:00 AM 0 32 0 8.82 1.45 11
7/5/2021 10:30:00 AM 0 32 0 8.87 1.39 11.08
7/5/2021 10:45:00 AM 0 32 0 8.9 1.31 11.11
7/5/2021 11:00:00 AM 0 32 0 8.94 1.36 11.16
7/5/2021 11:15:00 AM 0 32 0 8.97 1.4 11.21
7/5/2021 11:30:00 AM 0 32 0 9 1.37 11.24
7/5/2021 11:45:00 AM 0 32 0 9.02 1.42 11.24
7/5/2021 12:00:00 PM 0 32 0 9.05 1.39 11.26
7/5/2021 12:15:00 PM 0 32 0 9.08 1.45 11.28
7/5/2021 12:30:00 PM 0 32 0 9.1 1.39 11.3
7/5/2021 12:45:00 PM 0 32 0 9.13 1.38 11.33
7/5/2021 1:00:00 PM 0 32 0 9.15 1.36 11.33
7/5/2021 1:15:00 PM 0 32 0 9.17 1.38 11.34
7/5/2021 1:30:00 PM 0 32 0 9.19 1.48 11.33
7/5/2021 1:45:00 PM 0 32 0 9.21 1.47 11.32
7/5/2021 2:00:00 PM 0 32 0 9.23 1.39 11.31
7/5/2021 2:15:00 PM 0 32 0 9.24 1.41 11.11
7/5/2021 2:30:00 PM 0 32 0 9.24 1.39 11.24
7/5/2021 2:45:00 PM 0 32 0 9.25 1.41 11.21
7/5/2021 3:00:00 PM 0 32 0 9.26 1.4 11.15
7/5/2021 3:15:00 PM 0 32 0 9.25 1.37 11.11
7/5/2021 3:30:00 PM 0 32 0 9.26 1.26 11.06
7/5/2021 3:45:00 PM 0 32 0 9.25 1.42 10.97
7/5/2021 4:00:00 PM 0 32 0 9.24 1.41 10.83
7/5/2021 4:15:00 PM 0 32 0 9.21 1.37 10.72
7/5/2021 4:30:00 PM 0 32 0 9.2 1.38 10.64
7/5/2021 4:45:00 PM 0 32 0 9.18 1.39 10.54
7/5/2021 5:00:00 PM 0 32 0 9.16 1.42 10.43
7/5/2021 5:15:00 PM 0 32 0 9.13 1.33 10.31
7/5/2021 5:30:00 PM 0 32 0 9.09 1.39 10.17
7/5/2021 5:45:00 PM 0 32 0 9.05 1.36 9.99
7/5/2021 6:00:00 PM 0 32 0 8.98 1.35 9.81
7/5/2021 6:15:00 PM 0 32 0 8.91 1.43 9.62
7/5/2021 6:30:00 PM 0 32 0 8.84 1.31 9.49
7/5/2021 6:45:00 PM 0 32 0 8.75 1.29 9.24
7/5/2021 7:00:00 PM 0 32 0 8.65 1.32 9.06
7/5/2021 7:15:00 PM 0 32 0 8.52 1.28 8.79
7/5/2021 7:30:00 PM 0 32 0 8.38 1.19 8.5
7/5/2021 7:45:00 PM 0 32 0 8.22 1.28 8.21
7/5/2021 8:00:00 PM 0 32 0 8.07 1.3 7.91
7/5/2021 8:15:00 PM 0 32 0 7.95 1.3 7.63
7/5/2021 8:30:00 PM 0 32 0 7.89 1.28 7.49
7/5/2021 8:45:00 PM 0 32 0 7.85 1.3 7.36
7/5/2021 9:00:00 PM 0 32 0 7.81 1.3 7.25
7/5/2021 9:15:00 PM 0 32 0 7.79 1.48 7.2
7/5/2021 9:30:00 PM 0 32 0 7.78 1.55 7.17
7/5/2021 9:45:00 PM 0 32 0 7.78 1.5 7.16
7/5/2021 10:00:00 PM 0 32 0 7.77 1.54 7.16
7/5/2021 10:15:00 PM 0 32 0 7.78 1.49 7.17
7/5/2021 10:30:00 PM 0 32 0 7.78 1.48 7.18
7/5/2021 10:45:00 PM 0 32 0 7.76 1.51 7.16
7/5/2021 11:00:00 PM 0 32 0 7.77 1.43 7.19
7/5/2021 11:15:00 PM 0 32 0 7.77 1.52 7.18
7/5/2021 11:30:00 PM 0 32 0 7.76 1.57 7.19
7/5/2021 11:45:00 PM 0 32 0 7.76 1.6 7.2
7/6/2021 12:00:00 AM 0 32 0 7.75 1.89 7.2
7/6/2021 12:15:00 AM 0 32 0 7.76 1.49 7.2
7/6/2021 12:30:00 AM 0 32 0 7.75 1.49 7.22
7/6/2021 12:45:00 AM 0 32 0 7.75 1.55 7.23
7/6/2021 1:00:00 AM 0 32 0 7.74 1.51 7.24
7/6/2021 1:15:00 AM 0 32 0 7.75 1.58 7.24
7/6/2021 1:30:00 AM 0 32 0 7.75 1.57 7.26
7/6/2021 1:45:00 AM 0 32 0 7.75 1.55 7.26
7/6/2021 2:00:00 AM 0 32 0 7.75 1.49 7.27
7/6/2021 2:15:00 AM 0 32 0 7.75 1.6 7.28
7/6/2021 2:30:00 AM 0 32 0 7.75 1.61 7.28
7/6/2021 2:45:00 AM 0 32 0 7.75 1.65 7.29
7/6/2021 3:00:00 AM 0 32 0 7.74 1.56 7.3
7/6/2021 3:15:00 AM 0 32 0 7.75 1.68 7.31
7/6/2021 3:30:00 AM 0 32 0 7.75 1.59 7.32
7/6/2021 3:45:00 AM 0 32 0 7.75 1.59 7.33
7/6/2021 4:00:00 AM 0 32 0 7.73 1.6 7.33
7/6/2021 4:15:00 AM 0 32 0 7.74 1.52 7.34
7/6/2021 4:30:00 AM 0 32 0 7.73 1.58 7.35
7/6/2021 4:45:00 AM 0 32 0 7.72 1.73 7.35
7/6/2021 5:00:00 AM 0 32 0 7.73 1.57 7.36
7/6/2021 5:15:00 AM 0 32 0 7.73 1.57 7.36
7/6/2021 5:30:00 AM 0 32 0 7.73 1.54 7.37
7/6/2021 5:45:00 AM 0 32 0 7.74 1.45 7.41
7/6/2021 6:00:00 AM 0 32 0 7.75 1.51 7.48
7/6/2021 6:15:00 AM 0 32 0 7.77 1.41 7.57
7/6/2021 6:30:00 AM 0 32 0 7.78 1.69 7.72
7/6/2021 6:45:00 AM 0 32 0 7.82 1.42 7.92
7/6/2021 7:00:00 AM 0 32 0 7.9 1.38 8.37
7/6/2021 7:15:00 AM 0 32 0 7.93 13.43 8.42
7/6/2021 7:30:00 AM 0 32 0 8.02 1.32 8.82
7/6/2021 7:45:00 AM 0 32 0 8.15 1.35 9.27
7/6/2021 8:00:00 AM 0 32 0 8.36 1.42 9.8
7/6/2021 8:15:00 AM 0 32 0 8.21 1.27 9.08
7/6/2021 8:30:00 AM 0 32 0 8.34 1.43 9.65
7/6/2021 8:45:00 AM 0 32 0 8.48 1.38 9.93
7/6/2021 9:00:00 AM 0 32 0 8.46 1.37 9.77
7/6/2021 9:15:00 AM 0 32 0 8.63 1.32 10.38
7/6/2021 9:30:00 AM 0 32 0 8.73 1.37 10.63
7/6/2021 9:45:00 AM 0 32 0 8.83 1.26 10.95
7/6/2021 10:00:00 AM 0 32 0 8.89 1.33 11.12
7/6/2021 10:15:00 AM 0 32 0 8.97 1.38 11.28
7/6/2021 10:30:00 AM 0 32 0 9 1.26 11.28
7/6/2021 10:45:00 AM 0 32 0 9.07 1.26 11.49
7/6/2021 11:00:00 AM 0 32 0 9.12 1.36 11.43
7/6/2021 11:15:00 AM 0 32 0 9.05 1.32 10.74
7/6/2021 11:30:00 AM 0 32 0 9.06 1.33 10.83
7/6/2021 11:45:00 AM 0 32 0 9.04 1.32 10.69
7/6/2021 12:00:00 PM 0 32 0 9.06 1.33 10.83
7/6/2021 12:15:00 PM 0 32 0 9.11 1.32 11.17
7/6/2021 12:30:00 PM 0 32 0 9.2 3.99 11.53
7/6/2021 12:45:00 PM 0 32 0 9.19 1.26 11.19
7/6/2021 1:00:00 PM 0 32 0 9.16 1.29 10.97
7/6/2021 1:15:00 PM 0 32 0 9.21 1.26 11.4
7/6/2021 1:30:00 PM 0 32 0 9.27 1.31 11.51
7/6/2021 1:45:00 PM 0 32 0 9.28 1.28 11.45
7/6/2021 2:00:00 PM 0 32 0 9.1 1.3 9.85
7/6/2021 2:15:00 PM 0 32 0 8.85 1.28 8.77
7/6/2021 2:30:00 PM 0 32 0 8.73 1.28 8.53
7/6/2021 2:45:00 PM 0 32 0 8.67 1.24 8.62
7/6/2021 3:00:00 PM 0 32 0 8.72 1.23 9.13
7/6/2021 3:15:00 PM 0 32 0 8.74 1.19 9.56
7/6/2021 3:30:00 PM 0 32 0 8.72 1.26 9.76
7/6/2021 3:45:00 PM 0 32 0 8.85 1.3 10.47
7/6/2021 4:00:00 PM 0 32 0 8.97 1.3 11
7/6/2021 4:15:00 PM 0 32 0 9.07 1.35 11.14
7/6/2021 4:30:00 PM 0 32 0 9.03 1.32 10.51
7/6/2021 4:45:00 PM 0 32 0 8.9 1.42 9.9
7/6/2021 5:00:00 PM 0 32 0 8.82 1.33 9.49
7/6/2021 5:15:00 PM 0 32 0 8.72 1.23 9
7/6/2021 5:30:00 PM 0 32 0 8.6 1.25 8.66
7/6/2021 5:45:00 PM 0 32 0 8.48 1.23 8.46
7/6/2021 6:00:00 PM 0 32 0 8.4 1.2 8.55
7/6/2021 6:15:00 PM 0 32 0 8.58 1.25 9.43
7/6/2021 6:30:00 PM 0 32 0 8.54 1.24 9.16
7/6/2021 6:45:00 PM 0 32 0 8.5 1.25 9.2
7/6/2021 7:00:00 PM 0 32 0 8.6 1.2 9.46
7/6/2021 7:15:00 PM 0 32 0 8.52 1.21 9.1
7/6/2021 7:30:00 PM 0 32 0 8.4 1.15 8.72
7/6/2021 7:45:00 PM 0 32 0 8.28 1.14 8.45
7/6/2021 8:00:00 PM 0 32 0 8.18 1.14 8.18
7/6/2021 8:15:00 PM 0 32 0 8.09 1.16 7.99
7/6/2021 8:30:00 PM 0 32 0 7.99 1.17 7.75
7/6/2021 8:45:00 PM 0 32 0 7.91 1.2 7.53
7/6/2021 9:00:00 PM 0 32 0 7.85 1.22 7.37
7/6/2021 9:15:00 PM 0 32 0 7.81 1.19 7.28
7/6/2021 9:30:00 PM 0 32 0 7.8 1.36 7.24
7/6/2021 9:45:00 PM 0 32 0 7.79 1.32 7.21
7/6/2021 10:00:00 PM 0 32 0 7.77 1.28 7.18
7/6/2021 10:15:00 PM 0 32 0 7.76 1.32 7.17
7/6/2021 10:30:00 PM 0 32 0 7.76 1.31 7.18
7/6/2021 10:45:00 PM 0 32 0 7.76 1.32 7.17
7/6/2021 11:00:00 PM 0 32 0 7.76 1.34 7.19
7/6/2021 11:15:00 PM 0 32 0 7.75 1.4 7.2
7/6/2021 11:30:00 PM 0 32 0 7.75 1.46 7.21
7/6/2021 11:45:00 PM 0 32 0 7.76 1.39 7.21
7/7/2021 12:00:00 AM 0 32 0 7.76 1.43 7.23
7/7/2021 12:15:00 AM 0 32 0 7.76 1.43 7.23
7/7/2021 12:30:00 AM 0 32 0 7.76 1.36 7.25
7/7/2021 12:45:00 AM 0 32 0 7.75 1.37 7.27
7/7/2021 1:00:00 AM 0 32 0 7.74 1.43 7.28
7/7/2021 1:15:00 AM 0 32 0 7.75 1.43 7.29
7/7/2021 1:30:00 AM 0 32 0 7.74 1.54 7.29
7/7/2021 1:45:00 AM 0 32 0 7.74 1.43 7.31
7/7/2021 2:00:00 AM 0 32 0 7.73 1.41 7.32
7/7/2021 2:15:00 AM 0 32 0 7.71 1.58 7.33
7/7/2021 2:30:00 AM 0 32 0 7.72 1.53 7.34
7/7/2021 2:45:00 AM 0 32 0 7.72 1.49 7.35
7/7/2021 3:00:00 AM 0 32 0 7.7 1.45 7.35
7/7/2021 3:15:00 AM 0 32 0 7.7 1.53 7.38
7/7/2021 3:30:00 AM 0 32 0 7.7 1.47 7.38
7/7/2021 3:45:00 AM 0 32 0 7.71 1.46 7.39
7/7/2021 4:00:00 AM 0 32 0 7.71 1.5 7.4
7/7/2021 4:15:00 AM 0 32 0 7.72 1.45 7.4
7/7/2021 4:30:00 AM 0 32 0 7.73 1.62 7.4
7/7/2021 4:45:00 AM 0 32 0 7.74 1.55 7.4
7/7/2021 5:00:00 AM 0 32 0 7.74 2.06 7.41
7/7/2021 5:15:00 AM 0 32 0 7.74 1.9 7.41
7/7/2021 5:30:00 AM 0 32 0 7.74 1.9 7.42
7/7/2021 5:45:00 AM 0 32 0 7.75 1.86 7.49
7/7/2021 6:00:00 AM 0 32 0 7.77 1.76 7.61
7/7/2021 6:15:00 AM 0 32 0 7.79 1.71 7.74
7/7/2021 6:30:00 AM 0 32 0 7.82 1.63 7.93
7/7/2021 6:45:00 AM 0 32 0 7.9 1.55 8.31
7/7/2021 7:00:00 AM 0 32 0 7.97 1.5 8.61
7/7/2021 7:15:00 AM 0 32 0 8.05 1.56 8.93
7/7/2021 7:30:00 AM 0 32 0 8.18 1.64 9.32
7/7/2021 7:45:00 AM 0 32 0 8.35 1.59 9.81
7/7/2021 8:00:00 AM 0 32 0 8.36 1.48 9.78
7/7/2021 8:15:00 AM 0 32 0 8.51 1.33 10.28
7/7/2021 8:30:00 AM 0 32 0 8.61 1.46 10.46
7/7/2021 8:45:00 AM 0 32 0 8.49 1.47 9.86
7/7/2021 9:00:00 AM 0 32 0 8.63 1.55 10.46
7/7/2021 9:15:00 AM 0 32 0 8.78 1.47 10.91
7/7/2021 9:30:00 AM 0 32 0 8.87 1.32 11.11
7/7/2021 9:45:00 AM 0 32 0 8.92 2.65 11.25
7/7/2021 10:00:00 AM 0 32 0 8.98 1.83 11.42
7/7/2021 10:15:00 AM 0 32 0 9.04 1.35 11.5
7/7/2021 10:30:00 AM 0 32 0 9.09 1.34 11.53
7/7/2021 10:45:00 AM 0 32 0 9.15 1.31 11.7
7/7/2021 11:00:00 AM 0 32 0 9.21 1.37 11.75
7/7/2021 11:15:00 AM 0 32 0 9.23 1.25 11.76
7/7/2021 11:30:00 AM 0 32 0 9.28 2.28 11.81
7/7/2021 11:45:00 AM 0 32 0 9.3 1.31 11.77
7/7/2021 12:00:00 PM 0 32 0 9.33 1.27 11.84
7/7/2021 12:15:00 PM 0 32 0 9.34 1.3 11.6
7/7/2021 12:30:00 PM 0 32 0 9.32 1.2 11.38
7/7/2021 12:45:00 PM 0 32 0 9.28 1.26 11.1
7/7/2021 1:00:00 PM 0 32 0 9.31 1.2 11.35
7/7/2021 1:15:00 PM 0 32 0 9.32 1.22 11.25
7/7/2021 1:30:00 PM 0 32 0 9.3 1.22 11.24
7/7/2021 1:45:00 PM 0 32 0 9.33 1.22 11.34
7/7/2021 2:00:00 PM 0 32 0 9.36 1.17 11.46
7/7/2021 2:15:00 PM 0 32 0 9.37 1.27 11.4
7/7/2021 2:30:00 PM 0 32 0 9.38 1.2 11.5
7/7/2021 2:45:00 PM 0 32 0 9.39 1.22 11.35
7/7/2021 3:00:00 PM 0 32 0 9.36 1.17 11
7/7/2021 3:15:00 PM 0 32 0 9.35 1.19 11
7/7/2021 3:30:00 PM 0 32 0 9.32 1.3 10.71
7/7/2021 3:45:00 PM 0 32 0 9.3 1.16 10.65
7/7/2021 4:00:00 PM 0 32 0 9.26 1.31 10.5
7/7/2021 4:15:00 PM 0 32 0 9.26 1.27 10.62
7/7/2021 4:30:00 PM 0 32 0 9.28 1.22 10.85
7/7/2021 4:45:00 PM 0 32 0 9.27 1.29 10.81
7/7/2021 5:00:00 PM 0 32 0 9.26 1.25 10.66
7/7/2021 5:15:00 PM 0 32 0 9.24 1.16 10.6
7/7/2021 5:30:00 PM 0 32 0 9.21 1.23 10.39
7/7/2021 5:45:00 PM 0 32 0 9.21 1.19 10.3
7/7/2021 6:00:00 PM 0 32 0 9.18 1.17 10.1
7/7/2021 6:15:00 PM 0 32 0 9.13 1.2 9.91
7/7/2021 6:30:00 PM 0 32 0 9.03 1.16 9.42
7/7/2021 6:45:00 PM 0 32 0 8.89 1.13 8.96
7/7/2021 7:00:00 PM 0 32 0 8.73 1.15 8.52
7/7/2021 7:15:00 PM 0 32 0 8.61 1.17 8.35
7/7/2021 7:30:00 PM 0 32 0 8.51 1.2 8.22
7/7/2021 7:45:00 PM 0 32 0 8.37 1.17 8.05
7/7/2021 8:00:00 PM 0 32 0 8.25 1.1 7.88
7/7/2021 8:15:00 PM 0 32 0 8.08 1.1 7.51
7/7/2021 8:30:00 PM 0 32 0 7.95 1.1 7.23
7/7/2021 8:45:00 PM 0 32 0 7.87 1.21 7.05
7/7/2021 9:00:00 PM 0 32 0 7.83 1.16 6.95
7/7/2021 9:15:00 PM 0 32 0 7.8 1.37 6.87
7/7/2021 9:30:00 PM 0 32 0 7.78 1.24 6.84
7/7/2021 9:45:00 PM 0 32 0 7.77 1.31 6.82
7/7/2021 10:00:00 PM 0 32 0 7.76 1.23 6.8
7/7/2021 10:15:00 PM 0 32 0 7.75 1.19 6.81
7/7/2021 10:30:00 PM 0 32 0 7.76 1.22 6.84
7/7/2021 10:45:00 PM 0 32 0 7.76 1.43 6.99
7/7/2021 11:00:00 PM 0 32 0 7.74 1.52 7.04
7/7/2021 11:15:00 PM 0 32 0 7.75 1.65 7.06
7/7/2021 11:30:00 PM 0 32 0 7.78 2.98 7.18
7/7/2021 11:45:00 PM 0 32 0 7.77 3.15 7.18
7/8/2021 12:00:00 AM 0 32 0 7.73 4.43 6.99
7/8/2021 12:15:00 AM 0 32 0 7.72 4.67 6.9
7/8/2021 12:30:00 AM 0 32 0 7.7 4.39 6.86
7/8/2021 12:45:00 AM 0 32 0 7.7 3.89 6.85
7/8/2021 1:00:00 AM 0 32 0 7.7 3.46 6.83
7/8/2021 1:15:00 AM 0 32 0 7.71 2.89 6.86
7/8/2021 1:30:00 AM 0 32 0 7.72 2.6 6.9
7/8/2021 1:45:00 AM 0 32 0 7.72 2.33 6.95
7/8/2021 2:00:00 AM 0 32 0 7.74 2.1 6.99
7/8/2021 2:15:00 AM 0 32 0 7.75 1.97 7.04
7/8/2021 2:30:00 AM 0 32 0 7.76 1.99 7.09
7/8/2021 2:45:00 AM 0 32 0 7.77 2.16 7.16
7/8/2021 3:00:00 AM 0 32 0 7.78 2.21 7.23
7/8/2021 3:15:00 AM 0 32 0 7.81 3.02 7.36
7/8/2021 3:30:00 AM 0 32 0 7.82 2.54 7.44
7/8/2021 3:45:00 AM 0 32 0 7.84 2.72 7.49
7/8/2021 4:00:00 AM 0 32 0 7.83 2.53 7.51
7/8/2021 4:15:00 AM 0 32 0 7.83 2.45 7.54
7/8/2021 4:30:00 AM 0 32 0 7.82 2.76 7.55
7/8/2021 4:45:00 AM 0 32 0 7.83 3.48 7.6
7/8/2021 5:00:00 AM 0 32 0 7.83 4.29 7.64
7/8/2021 5:15:00 AM 0 32 0 7.83 4.05 7.66
7/8/2021 5:30:00 AM 0 32 0 7.84 3.8 7.66
7/8/2021 5:45:00 AM 0 32 0 7.85 3.46 7.67
7/8/2021 6:00:00 AM 0 32 0 7.85 3.43 7.68
7/8/2021 6:15:00 AM 0 32 0 7.87 3.29 7.73
7/8/2021 6:30:00 AM 0 32 0 7.88 3.06 7.83
7/8/2021 6:45:00 AM 0 32 0 7.9 3.03 7.96
7/8/2021 7:00:00 AM 0 32 0 7.95 3.09 8.17
7/8/2021 7:15:00 AM 0 32 0 8 2.87 8.37
7/8/2021 7:30:00 AM 0 32 0 8.13 2.82 8.84
7/8/2021 7:45:00 AM 0 32 0 8.12 2.65 8.7
7/8/2021 8:00:00 AM 0 32 0 8.19 2.44 8.96
7/8/2021 8:15:00 AM 0 32 0 8.27 2.49 9.13
7/8/2021 8:30:00 AM 0 32 0 8.24 2.32 8.94
7/8/2021 8:45:00 AM 0 32 0 8.27 2.15 9.07
7/8/2021 9:00:00 AM 0 32 0 8.35 2.07 9.32
7/8/2021 9:15:00 AM 0 32 0 8.46 2.03 9.65
7/8/2021 9:30:00 AM 0 32 0 8.54 2.04 9.84
7/8/2021 9:45:00 AM 0 32 0 8.66 1.87 10.17
7/8/2021 10:00:00 AM 0 32 0 8.77 1.84 10.47
7/8/2021 10:15:00 AM 0 32 0 8.84 1.83 10.63
7/8/2021 10:30:00 AM 0 32 0 8.91 1.84 10.75
7/8/2021 10:45:00 AM 0 32 0 8.97 2.11 10.81
7/8/2021 11:00:00 AM 0 32 0 8.98 1.76 10.75
7/8/2021 11:15:00 AM 0 32 0 8.98 1.75 10.63
7/8/2021 11:30:00 AM 0 32 0 8.96 1.74 10.46
7/8/2021 11:45:00 AM 0 32 0 8.97 1.74 10.5
7/8/2021 12:00:00 PM 0 32 0 9 1.6 10.62
7/8/2021 12:15:00 PM 0 32 0 9.02 1.63 10.63
7/8/2021 12:30:00 PM 0 32 0 9.04 1.6 10.69
7/8/2021 12:45:00 PM 0 32 0 9.04 1.67 10.59
7/8/2021 1:00:00 PM 0 32 0 9.01 1.58 10.32
7/8/2021 1:15:00 PM 0 32 0 8.93 1.62 9.76
7/8/2021 1:30:00 PM 0 32 0 8.9 1.57 9.75
7/8/2021 1:45:00 PM 0 32 0 8.81 1.49 9.46
7/8/2021 2:00:00 PM 0 32 0 8.87 1.57 9.99
7/8/2021 2:15:00 PM 0 32 0 8.88 1.52 10.14
7/8/2021 2:30:00 PM 0 32 0 8.97 1.51 10.56
7/8/2021 2:45:00 PM 0 32 0 9.02 1.51 10.67
7/8/2021 3:00:00 PM 0 32 0 9.07 1.63 10.73
7/8/2021 3:15:00 PM 0 32 0 9 1.47 10.13
7/8/2021 3:30:00 PM 0 32 0 9 1.51 10.15
7/8/2021 3:45:00 PM 0 32 0 8.97 1.46 9.97
7/8/2021 4:00:00 PM 0 32 0 8.9 1.47 9.72
7/8/2021 4:15:00 PM 0 32 0 8.9 1.51 9.9
7/8/2021 4:30:00 PM 0 32 0 8.91 1.45 9.99
7/8/2021 4:45:00 PM 0 32 0 8.94 1.55 10.16
7/8/2021 5:00:00 PM 0 32 0 8.95 1.59 10.22
7/8/2021 5:15:00 PM 0 32 0 8.98 1.49 10.23
7/8/2021 5:30:00 PM 0 32 0 8.88 1.48 9.63
7/8/2021 5:45:00 PM 0 32 0 8.82 1.51 9.37
7/8/2021 6:00:00 PM 0 32 0 8.73 1.42 9.08
7/8/2021 6:15:00 PM 0 32 0 8.52 1.38 8.52
7/8/2021 6:30:00 PM 0 32 0 8.37 1.39 8.31
7/8/2021 6:45:00 PM 0 32 0 8.26 1.45 8.14
7/8/2021 7:00:00 PM 0 32 0 8.17 1.37 8
7/8/2021 7:15:00 PM 0 32 0 8.07 1.44 7.81
7/8/2021 7:30:00 PM 0 32 0 8 1.5 7.67
7/8/2021 7:45:00 PM 0 32 0 7.95 1.43 7.59
7/8/2021 8:00:00 PM 0 32 0 7.91 1.48 7.5
7/8/2021 8:15:00 PM 0 32 0 7.88 1.54 7.46
7/8/2021 8:30:00 PM 0 32 0 7.86 1.53 7.43
7/8/2021 8:45:00 PM 0 32 0 7.85 1.83 7.39
7/8/2021 9:00:00 PM 0 32 0 7.82 1.94 7.34
7/8/2021 9:15:00 PM 0 32 0 7.79 2.8 7.23
7/8/2021 9:30:00 PM 0 32 0 7.77 2.79 7.17
7/8/2021 9:45:00 PM 0 32 0 7.77 2.69 7.21
7/8/2021 10:00:00 PM 0 32 0 7.76 2.41 7.24
7/8/2021 10:15:00 PM 0 32 0 7.77 2.35 7.31
7/8/2021 10:30:00 PM 0 32 0 7.79 2.45 7.4
7/8/2021 10:45:00 PM 0 32 0 7.81 13.22 7.68
7/8/2021 11:00:00 PM 0 32 0 7.77 38.5 7.9
7/8/2021 11:15:00 PM 0 32 0 7.74 49.74 8
7/8/2021 11:30:00 PM 0 32 0 7.72 42.57 8.05
7/8/2021 11:45:00 PM 0 32 0 7.71 36.75 8.03
7/9/2021 12:00:00 AM 0 32 0 7.77 28.11 8
7/9/2021 12:15:00 AM 0 32 0 7.77 38.12 7.99
7/9/2021 12:30:00 AM 0 32 0 7.82 29.43 8.02
7/9/2021 12:45:00 AM 0 32 0 7.79 33.98 8.09
7/9/2021 1:00:00 AM 0 32 0 7.77 43.75 8.13
7/9/2021 1:15:00 AM 0 32 0 7.79 57.66 8.19
7/9/2021 1:30:00 AM 0 32 0 7.76 63.66 8.23
7/9/2021 1:45:00 AM 0 32 0 7.73 51.4 8.22
7/9/2021 2:00:00 AM 0 32 0 7.74 46.06 8.24
7/9/2021 2:15:00 AM 0 32 0 7.76 39.69 8.24
7/9/2021 2:30:00 AM 0 32 0 7.77 37.84 8.23
7/9/2021 2:45:00 AM 0 32 0 7.78 33.32 8.23
7/9/2021 3:00:00 AM 0 32 0 7.77 34.81 8.21
7/9/2021 3:15:00 AM 0 32 0 7.76 25.15 8.21
7/9/2021 3:30:00 AM 0 32 0 7.76 24.6 8.2
7/9/2021 3:45:00 AM 0 32 0 7.75 23.31 8.21
7/9/2021 4:00:00 AM 0 32 0 7.75 21.15 8.19
7/9/2021 4:15:00 AM 0 32 0 7.76 16.87 8.18
7/9/2021 4:30:00 AM 0 32 0 7.76 17.93 8.17
7/9/2021 4:45:00 AM 0 32 0 7.76 18.29 8.16
7/9/2021 5:00:00 AM 0 32 0 7.76 15.83 8.16
7/9/2021 5:15:00 AM 0 32 0 7.75 14.84 8.14
7/9/2021 5:30:00 AM 0 32 0 7.75 14.86 8.15
7/9/2021 5:45:00 AM 0 32 0 7.73 13.83 8.15
7/9/2021 6:00:00 AM 0 32 0 7.74 13.1 8.15
7/9/2021 6:15:00 AM 0 32 0 7.75 11.81 8.17
7/9/2021 6:30:00 AM 0 32 0 7.77 11.09 8.21
7/9/2021 6:45:00 AM 0 32 0 7.78 10.17 8.28
7/9/2021 7:00:00 AM 0 32 0 7.8 9.47 8.29
7/9/2021 7:15:00 AM 0 32 0 7.8 8.77 8.29
7/9/2021 7:30:00 AM 0 32 0 7.8 8.31 8.32
7/9/2021 7:45:00 AM 0 32 0 7.83 7.92 8.41
7/9/2021 8:00:00 AM 0 32 0 7.84 7.56 8.46
7/9/2021 8:15:00 AM 0 32 0 7.92 7.52 8.67
7/9/2021 8:30:00 AM 0 32 0 7.98 6.75 8.79
7/9/2021 8:45:00 AM 0 32 0 8.07 6.26 9.06
7/9/2021 9:00:00 AM 0 32 0 8.17 6.13 9.25
7/9/2021 9:15:00 AM 0 32 0 8.29 5.6 9.39
7/9/2021 9:30:00 AM 0 32 0 8.29 5.7 9.36
7/9/2021 9:45:00 AM 0 32 0 8.15 5.59 8.95
7/9/2021 10:00:00 AM 0 32 0 8.18 5.26 9.07
7/9/2021 10:15:00 AM 0 32 0 8.21 4.91 9.14
7/9/2021 10:30:00 AM 0 32 0 8.31 82.07 9.34
7/9/2021 10:45:00 AM 0 32 0 8.39 4.9 9.45
7/9/2021 11:00:00 AM 0 32 0 8.45 4.69 9.56
7/9/2021 11:15:00 AM 0 32 0 8.31 4.41 9.1
7/9/2021 11:30:00 AM 0 32 0 8.36 4.39 9.27
7/9/2021 11:45:00 AM 0 32 0 8.36 4.32 9.14
7/9/2021 12:00:00 PM 0 32 0 8.37 4.12 9.32
7/9/2021 12:15:00 PM 0 32 0 8.51 4.12 9.64
7/9/2021 12:30:00 PM 0 32 0 8.6 4.22 9.79
7/9/2021 12:45:00 PM 0 32 0 8.58 4.18 9.54
7/9/2021 1:00:00 PM 0 32 0 8.58 4.13 9.49
7/9/2021 1:15:00 PM 0 32 0 8.62 4.1 9.49
7/9/2021 1:30:00 PM 0 32 0 8.71 4.01 9.82
7/9/2021 1:45:00 PM 0 32 0 8.79 4.15 9.91
7/9/2021 2:00:00 PM 0 32 0 8.81 3.93 9.89
7/9/2021 2:15:00 PM 0 32 0 8.8 3.81 9.69
7/9/2021 2:30:00 PM 0 32 0 8.69 3.84 9.26
7/9/2021 2:45:00 PM 0 32 0 8.49 3.64 8.69
7/9/2021 3:00:00 PM 0 32 0 8.34 3.53 8.4
7/9/2021 3:15:00 PM 0 32 0 8.29 3.52 8.44
7/9/2021 3:30:00 PM 0 32 0 8.22 3.26 8.36
7/9/2021 3:45:00 PM 0 32 0 8.31 3.26 8.73
7/9/2021 4:00:00 PM 0 32 0 8.37 3.05 8.91
7/9/2021 4:15:00 PM 0 32 0 8.5 3.29 9.35
7/9/2021 4:30:00 PM 0 32 0 8.6 3.19 9.54
7/9/2021 4:45:00 PM 0 32 0 8.64 3.07 9.56
7/9/2021 5:00:00 PM 0 32 0 8.71 3.12 9.67
7/9/2021 5:15:00 PM 0 32 0 8.69 3.04 9.53
7/9/2021 5:30:00 PM 0 32 0 8.7 2.9 9.55
7/9/2021 5:45:00 PM 0 32 0 8.66 2.86 9.31
7/9/2021 6:00:00 PM 0 32 0 8.59 2.76 9.15
7/9/2021 6:15:00 PM 0 32 0 8.5 2.84 8.92
7/9/2021 6:30:00 PM 0 32 0 8.43 2.73 8.84
7/9/2021 6:45:00 PM 0 32 0 8.38 2.91 8.74
7/9/2021 7:00:00 PM 0 32 0 8.35 2.7 8.71
7/9/2021 7:15:00 PM 0 32 0 8.28 2.74 8.56
7/9/2021 7:30:00 PM 0 32 0 8.15 2.61 8.31
7/9/2021 7:45:00 PM 0 32 0 8.09 2.65 8.19
7/9/2021 8:00:00 PM 0 32 0 8 2.59 8
7/9/2021 8:15:00 PM 0 32 0 7.93 2.52 7.89
7/9/2021 8:30:00 PM 0 32 0 7.89 2.63 7.8
7/9/2021 8:45:00 PM 0 32 0 7.84 2.69 7.72
7/9/2021 9:00:00 PM 0 32 0 7.81 2.69 7.67
7/9/2021 9:15:00 PM 0 32 0 7.79 2.73 7.65
7/9/2021 9:30:00 PM 0 32 0 7.79 2.76 7.63
7/9/2021 9:45:00 PM 0 32 0 7.77 2.78 7.63
7/9/2021 10:00:00 PM 0 32 0 7.78 2.7 7.64
7/9/2021 10:15:00 PM 0 32 0 7.77 2.65 7.64
7/9/2021 10:30:00 PM 0 32 0 7.77 2.53 7.65
7/9/2021 10:45:00 PM 0 32 0 7.77 2.72 7.66
7/9/2021 11:00:00 PM 0 32 0 7.78 2.61 7.66
7/9/2021 11:15:00 PM 0 32 0 7.78 2.58 7.67
7/9/2021 11:30:00 PM 0 32 0 7.77 2.67 7.69
7/9/2021 11:45:00 PM 0 32 0 7.77 2.76 7.69
7/10/2021 12:00:00 AM 0 32 0 7.77 2.69 7.7
7/10/2021 12:15:00 AM 0 32 0 7.77 2.93 7.72
7/10/2021 12:30:00 AM 0 32 0 7.78 2.82 7.72
7/10/2021 12:45:00 AM 0 32 0 7.77 2.69 7.74
7/10/2021 1:00:00 AM 0 32 0 7.77 2.58 7.75
7/10/2021 1:15:00 AM 0 32 0 7.77 2.59 7.75
7/10/2021 1:30:00 AM 0 32 0 7.78 2.68 7.77
7/10/2021 1:45:00 AM 0 32 0 7.77 2.52 7.76
7/10/2021 2:00:00 AM 0 32 0 7.76 2.53 7.78
7/10/2021 2:15:00 AM 0 32 0 7.77 2.49 7.8
7/10/2021 2:30:00 AM 0 32 0 7.76 2.48 7.8
7/10/2021 2:45:00 AM 0 32 0 7.76 2.43 7.81
7/10/2021 3:00:00 AM 0 32 0 7.76 2.47 7.82
7/10/2021 3:15:00 AM 0 32 0 7.76 2.49 7.83
7/10/2021 3:30:00 AM 0 32 0 7.76 2.54 7.83
7/10/2021 3:45:00 AM 0 32 0 7.76 2.47 7.84
7/10/2021 4:00:00 AM 0 32 0 7.76 2.37 7.85
7/10/2021 4:15:00 AM 0 32 0 7.75 2.45 7.85
7/10/2021 4:30:00 AM 0 32 0 7.76 2.57 7.88
7/10/2021 4:45:00 AM 0 32 0 7.75 2.58 7.88
7/10/2021 5:00:00 AM 0 32 0 7.75 2.45 7.86
7/10/2021 5:15:00 AM 0 32 0 7.75 2.42 7.87
7/10/2021 5:30:00 AM 0 32 0 7.74 2.43 7.88
7/10/2021 5:45:00 AM 0 32 0 7.75 2.32 7.88
7/10/2021 6:00:00 AM 0 32 0 7.76 2.38 7.93
7/10/2021 6:15:00 AM 0 32 0 7.76 2.09 7.95
7/10/2021 6:30:00 AM 0 32 0 7.78 1.96 8.02
7/10/2021 6:45:00 AM 0 32 0 7.8 1.85 8.11
7/10/2021 7:00:00 AM 0 32 0 7.83 1.89 8.19
7/10/2021 7:15:00 AM 0 32 0 7.84 1.83 8.25
7/10/2021 7:30:00 AM 0 32 0 7.87 1.83 8.34
7/10/2021 7:45:00 AM 0 32 0 7.89 1.78 8.41
7/10/2021 8:00:00 AM 0 32 0 7.91 1.79 8.52
7/10/2021 8:15:00 AM 0 32 0 7.97 1.77 8.7
7/10/2021 8:30:00 AM 0 32 0 7.98 1.77 8.72
7/10/2021 8:45:00 AM 0 32 0 8.02 1.67 8.86
7/10/2021 9:00:00 AM 0 32 0 8.15 1.8 9.27
7/10/2021 9:15:00 AM 0 32 0 8.24 1.72 9.46
7/10/2021 9:30:00 AM 0 32 0 8.31 1.71 9.59
7/10/2021 9:45:00 AM 0 32 0 8.39 1.79 9.79
7/10/2021 10:00:00 AM 0 32 0 8.46 1.71 9.89
7/10/2021 10:15:00 AM 0 32 0 8.43 1.69 9.73
7/10/2021 10:30:00 AM 0 32 0 8.38 1.75 9.54
7/10/2021 10:45:00 AM 0 32 0 8.42 1.65 9.7
7/10/2021 11:00:00 AM 0 32 0 8.5 1.69 9.92
7/10/2021 11:15:00 AM 0 32 0 8.59 1.72 10.18
7/10/2021 11:30:00 AM 0 32 0 8.62 1.72 10.18
7/10/2021 11:45:00 AM 0 32 0 8.7 1.71 10.41
7/10/2021 12:00:00 PM 0 32 0 8.72 1.71 10.35
7/10/2021 12:15:00 PM 0 32 0 8.76 1.62 10.44
7/10/2021 12:30:00 PM 0 32 0 8.76 1.69 10.37
7/10/2021 12:45:00 PM 0 32 0 8.73 1.69 10.24
7/10/2021 1:00:00 PM 0 32 0 8.79 1.61 10.49
7/10/2021 1:15:00 PM 0 32 0 8.8 1.69 10.48
7/10/2021 1:30:00 PM 0 32 0 8.76 1.72 10.18
7/10/2021 1:45:00 PM 0 32 0 8.71 1.55 10.05
7/10/2021 2:00:00 PM 0 32 0 8.84 1.6 10.54
7/10/2021 2:15:00 PM 0 32 0 8.91 1.67 10.72
7/10/2021 2:30:00 PM 0 32 0 8.94 1.58 10.76
7/10/2021 2:45:00 PM 0 32 0 8.97 1.67 10.84
7/10/2021 3:00:00 PM 0 32 0 9.03 1.62 11.03
7/10/2021 3:15:00 PM 0 32 0 9.04 1.78 10.9
7/10/2021 3:30:00 PM 0 32 0 9.07 2.13 10.94
7/10/2021 3:45:00 PM 0 32 0 9.03 1.58 10.6
7/10/2021 4:00:00 PM 0 32 0 9.02 1.68 10.55
7/10/2021 4:15:00 PM 0 32 0 8.98 1.69 10.32
7/10/2021 4:30:00 PM 0 32 0 8.98 2.2 10.41
7/10/2021 4:45:00 PM 0 32 0 8.96 1.98 10.42
7/10/2021 5:00:00 PM 0 32 0 8.94 1.75 10.38
7/10/2021 5:15:00 PM 0 32 0 8.96 1.64 10.48
7/10/2021 5:30:00 PM 0 32 0 8.94 1.6 10.29
7/10/2021 5:45:00 PM 0 32 0 8.94 1.57 10.27
7/10/2021 6:00:00 PM 0 32 0 8.88 1.67 9.97
7/10/2021 6:15:00 PM 0 32 0 8.81 1.5 9.74
7/10/2021 6:30:00 PM 0 32 0 8.76 1.57 9.56
7/10/2021 6:45:00 PM 0 32 0 8.68 1.55 9.37
7/10/2021 7:00:00 PM 0 32 0 8.57 1.48 9.14
7/10/2021 7:15:00 PM 0 32 0 8.41 1.53 8.84
7/10/2021 7:30:00 PM 0 32 0 8.26 1.53 8.6
7/10/2021 7:45:00 PM 0 32 0 8.14 1.53 8.43
7/10/2021 8:00:00 PM 0 32 0 8.03 1.42 8.29
7/10/2021 8:15:00 PM 0 32 0 7.96 1.46 8.16
7/10/2021 8:30:00 PM 0 32 0 7.89 1.48 8.03
7/10/2021 8:45:00 PM 0 32 0 7.85 1.62 7.89
7/10/2021 9:00:00 PM 0 32 0 7.81 1.58 7.79
7/10/2021 9:15:00 PM 0 32 0 7.77 1.63 7.74
7/10/2021 9:30:00 PM 0 32 0 7.76 1.67 7.72
7/10/2021 9:45:00 PM 0 32 0 7.74 1.83 7.71
7/10/2021 10:00:00 PM 0 32 0 7.73 1.68 7.71
7/10/2021 10:15:00 PM 0 32 0 7.73 1.67 7.71
7/10/2021 10:30:00 PM 0 32 0 7.72 1.65 7.72
7/10/2021 10:45:00 PM 0 32 0 7.72 1.67 7.74
7/10/2021 11:00:00 PM 0 32 0 7.71 1.62 7.74
7/10/2021 11:15:00 PM 0 32 0 7.71 1.75 7.76
7/10/2021 11:30:00 PM 0 32 0 7.71 1.58 7.77
7/10/2021 11:45:00 PM 0 32 0 7.71 1.69 7.79
7/11/2021 12:00:00 AM 0 32 0 7.7 1.68 7.79
7/11/2021 12:15:00 AM 0 32 0 7.7 1.62 7.81
7/11/2021 12:30:00 AM 0 32 0 7.7 1.67 7.82
7/11/2021 12:45:00 AM 0 32 0 7.71 1.7 7.84
7/11/2021 1:00:00 AM 0 32 0 7.7 1.8 7.85
7/11/2021 1:15:00 AM 0 32 0 7.7 1.67 7.87
7/11/2021 1:30:00 AM 0 32 0 7.7 1.68 7.88
7/11/2021 1:45:00 AM 0 32 0 7.69 1.84 7.89
7/11/2021 2:00:00 AM 0 32 0 7.69 1.73 7.91
7/11/2021 2:15:00 AM 0 32 0 7.69 1.72 7.93
7/11/2021 2:30:00 AM 0 32 0 7.69 1.71 7.93
7/11/2021 2:45:00 AM 0 32 0 7.7 1.64 7.95
7/11/2021 3:00:00 AM 0 32 0 7.69 1.68 7.95
7/11/2021 3:15:00 AM 0 32 0 7.7 1.69 7.97
7/11/2021 3:30:00 AM 0 32 0 7.7 1.88 7.99
7/11/2021 3:45:00 AM 0 32 0 7.7 1.72 7.99
7/11/2021 4:00:00 AM 0 32 0 7.7 1.75 8.01
7/11/2021 4:15:00 AM 0 32 0 7.7 1.71 8.01
7/11/2021 4:30:00 AM 0 32 0 7.7 1.67 8.03
7/11/2021 4:45:00 AM 0 32 0 7.7 1.82 8.03
7/11/2021 5:00:00 AM 0 32 0 7.69 1.72 8.03
7/11/2021 5:15:00 AM 0 32 0 7.7 1.7 8.05
7/11/2021 5:30:00 AM 0 32 0 7.71 1.61 8.05
7/11/2021 5:45:00 AM 0 32 0 7.71 1.57 8.08
7/11/2021 6:00:00 AM 0 32 0 7.72 1.48 8.14
7/11/2021 6:15:00 AM 0 32 0 7.75 1.49 8.26
7/11/2021 6:30:00 AM 0 32 0 7.78 1.51 8.45
7/11/2021 6:45:00 AM 0 32 0 7.85 1.44 8.72
7/11/2021 7:00:00 AM 0 32 0 7.9 1.4 8.87
7/11/2021 7:15:00 AM 0 32 0 7.93 1.34 8.94
7/11/2021 7:30:00 AM 0 32 0 7.94 1.35 8.92
7/11/2021 7:45:00 AM 0 32 0 7.97 1.31 9.02
7/11/2021 8:00:00 AM 0 32 0 8.02 1.29 9.2
7/11/2021 8:15:00 AM 0 32 0 8.13 1.31 9.5
7/11/2021 8:30:00 AM 0 32 0 8.23 1.29 9.73
7/11/2021 8:45:00 AM 0 32 0 8.33 1.35 10
7/11/2021 9:00:00 AM 0 32 0 8.45 1.28 10.27
7/11/2021 9:15:00 AM 0 32 0 8.57 1.33 10.58
7/11/2021 9:30:00 AM 0 32 0 8.63 1.35 10.6
7/11/2021 9:45:00 AM 0 32 0 8.65 1.36 10.57
7/11/2021 10:00:00 AM 0 32 0 8.71 1.31 10.71
7/11/2021 10:15:00 AM 0 32 0 8.72 1.36 10.58
7/11/2021 10:30:00 AM 0 32 0 8.79 1.31 10.83
7/11/2021 10:45:00 AM 0 32 0 8.85 1.35 11
7/11/2021 11:00:00 AM 0 32 0 8.81 1.34 10.72
7/11/2021 11:15:00 AM 0 32 0 8.83 1.3 10.83
7/11/2021 11:30:00 AM 0 32 0 8.85 1.34 10.81
7/11/2021 11:45:00 AM 0 32 0 8.85 1.27 10.73
7/11/2021 12:00:00 PM 0 32 0 8.83 1.31 10.61
7/11/2021 12:15:00 PM 0 32 0 8.85 1.33 10.7
7/11/2021 12:30:00 PM 0 32 0 8.84 1.28 10.6
7/11/2021 12:45:00 PM 0 32 0 8.77 1.35 10.31
7/11/2021 1:00:00 PM 0 32 0 8.72 1.31 10.11
7/11/2021 1:15:00 PM 0 32 0 8.72 1.35 10.16
7/11/2021 1:30:00 PM 0 32 0 8.66 1.31 9.91
7/11/2021 1:45:00 PM 0 32 0 8.58 1.34 9.72
7/11/2021 2:00:00 PM 0 32 0 8.46 1.25 9.37
7/11/2021 2:15:00 PM 0 32 0 8.36 1.3 9.14
7/11/2021 2:30:00 PM 0 32 0 8.31 1.31 9.13
7/11/2021 2:45:00 PM 0 32 0 8.32 1.27 9.23
7/11/2021 3:00:00 PM 0 32 0 8.33 1.23 9.31
7/11/2021 3:15:00 PM 0 32 0 8.28 1.26 9.22
7/11/2021 3:30:00 PM 0 32 0 8.28 1.42 9.24
7/11/2021 3:45:00 PM 0 32 0 8.43 1.45 9.71
7/11/2021 4:00:00 PM 0 32 0 8.41 1.46 9.6
7/11/2021 4:15:00 PM 0 32 0 8.36 1.48 9.45
7/11/2021 4:30:00 PM 0 32 0 8.32 1.59 9.32
7/11/2021 4:45:00 PM 0 32 0 8.25 1.91 9.13
7/11/2021 5:00:00 PM 0 32 0 8.18 2.04 8.99
7/11/2021 5:15:00 PM 0 32 0 8.14 2.3 8.94
7/11/2021 5:30:00 PM 0 32 0 8.07 2.31 8.77
7/11/2021 5:45:00 PM 0 32 0 8.03 2.7 8.72
7/11/2021 6:00:00 PM 0 32 0 8.01 2.74 8.68
7/11/2021 6:15:00 PM 0 32 0 7.98 2.57 8.6
7/11/2021 6:30:00 PM 0 32 0 7.95 2.48 8.53
7/11/2021 6:45:00 PM 0 32 0 7.95 2.17 8.56
7/11/2021 7:00:00 PM 0 32 0 7.92 2.03 8.5
7/11/2021 7:15:00 PM 0 32 0 7.91 2.12 8.45
7/11/2021 7:30:00 PM 0 32 0 7.88 2.18 8.41
7/11/2021 7:45:00 PM 0 32 0 7.88 2.32 8.44
7/11/2021 8:00:00 PM 0 32 0 7.87 2.93 8.39
7/11/2021 8:15:00 PM 0 32 0 7.85 3.7 8.35
7/11/2021 8:30:00 PM 0 32 0 7.84 3.91 8.33
7/11/2021 8:45:00 PM 0 32 0 7.82 4.26 8.31
7/11/2021 9:00:00 PM 0 32 0 7.82 4.24 8.33
7/11/2021 9:15:00 PM 0 32 0 7.8 4.84 8.32
7/11/2021 9:30:00 PM 0 32 0 7.79 4.49 8.32
7/11/2021 9:45:00 PM 0 32 0 7.77 4.6 8.33
7/11/2021 10:00:00 PM 0 32 0 7.77 4.9 8.34
7/11/2021 10:15:00 PM 0 32 0 7.76 5.09 8.35
7/11/2021 10:30:00 PM 0 32 0 7.77 5.29 8.36
7/11/2021 10:45:00 PM 0 32 0 7.8 5.55 8.39
7/11/2021 11:00:00 PM 0 32 0 7.79 5.72 8.41
7/11/2021 11:15:00 PM 0 32 0 7.78 6.8 8.42
7/11/2021 11:30:00 PM 0 32 0 7.77 7.76 8.42
7/11/2021 11:45:00 PM 0 32 0 7.77 7.23 8.41
7/12/2021 12:00:00 AM 0 32 0 7.78 6.97 8.43
7/12/2021 12:15:00 AM 0 32 0 7.78 6.59 8.43
7/12/2021 12:30:00 AM 0 32 0 7.78 6.88 8.44
7/12/2021 12:45:00 AM 0 32 0 7.77 6.77 8.43
7/12/2021 1:00:00 AM 0 32 0 7.77 6.67 8.45
7/12/2021 1:15:00 AM 0 32 0 7.76 6.72 8.46
7/12/2021 1:30:00 AM 0 32 0 7.77 6.76 8.46
7/12/2021 1:45:00 AM 0 32 0 7.77 6.94 8.47
7/12/2021 2:00:00 AM 0 32 0 7.77 7.54 8.48
7/12/2021 2:15:00 AM 0 32 0 7.77 8.78 8.49
7/12/2021 2:30:00 AM 0 32 0 7.77 9.52 8.52
7/12/2021 2:45:00 AM 0 32 0 7.77 9.77 8.53
7/12/2021 3:00:00 AM 0 32 0 7.77 9.76 8.53
7/12/2021 3:15:00 AM 0 32 0 7.76 10.22 8.54
7/12/2021 3:30:00 AM 0 32 0 7.75 10.42 8.54
7/12/2021 3:45:00 AM 0 32 0 7.75 10.42 8.55
7/12/2021 4:00:00 AM 0 32 0 7.75 10.38 8.54
7/12/2021 4:15:00 AM 0 32 0 7.75 9.92 8.55
7/12/2021 4:30:00 AM 0 32 0 7.75 9.66 8.54
7/12/2021 4:45:00 AM 0 32 0 7.75 9.24 8.55
7/12/2021 5:00:00 AM 0 32 0 7.75 9.03 8.55
7/12/2021 5:15:00 AM 0 32 0 7.75 8.39 8.54
7/12/2021 5:30:00 AM 0 32 0 7.75 8.59 8.54
7/12/2021 5:45:00 AM 0 32 0 7.75 7.92 8.54
7/12/2021 6:00:00 AM 0 32 0 7.74 8.42 8.54
7/12/2021 6:15:00 AM 0 32 0 7.74 7.81 8.56
7/12/2021 6:30:00 AM 0 32 0 7.74 7.25 8.56
7/12/2021 6:45:00 AM 0 32 0 7.74 7.27 8.57
7/12/2021 7:00:00 AM 0 32 0 7.76 6.71 8.6
7/12/2021 7:15:00 AM 0 32 0 7.75 6.65 8.61
7/12/2021 7:30:00 AM 0 32 0 7.74 5.83 8.66
7/12/2021 7:45:00 AM 0 32 0 7.75 5.95 8.67
7/12/2021 8:00:00 AM 0 32 0 7.79 5.54 8.82
7/12/2021 8:15:00 AM 0 32 0 7.82 5.41 8.9
7/12/2021 8:30:00 AM 0 32 0 7.84 5.35 8.88
7/12/2021 8:45:00 AM 0 32 0 7.89 5.32 9.03
7/12/2021 9:00:00 AM 0 32 0 7.91 5.12 9.09
7/12/2021 9:15:00 AM 0 32 0 7.91 4.98 9.07
7/12/2021 9:30:00 AM 0 32 0 8.05 4.95 9.39
7/12/2021 9:45:00 AM 0 32 0 8.1 4.85 9.47
7/12/2021 10:00:00 AM 0 32 0 8.07 4.62 9.34
7/12/2021 10:15:00 AM 0 32 0 8.07 4.75 9.32
7/12/2021 10:30:00 AM 0 32 0 8.09 4.61 9.32
7/12/2021 10:45:00 AM 0 32 0 8.03 4.5 9.15
7/12/2021 11:00:00 AM 0 32 0 7.99 4.44 9.03
7/12/2021 11:15:00 AM 0 32 0 7.99 4.47 9.04
7/12/2021 11:30:00 AM 0 32 0 7.98 4.14 9.03
7/12/2021 11:45:00 AM 0 32 0 7.98 4.13 9.01
7/12/2021 12:00:00 PM 0 32 0 7.98 4.09 9.04
7/12/2021 12:15:00 PM 0 32 0 8.01 4.13 9.13
7/12/2021 12:30:00 PM 0 32 0 8.02 4.04 9.15
7/12/2021 12:45:00 PM 0 32 0 8.08 4 9.24
7/12/2021 1:00:00 PM 0 32 0 8.08 4.14 9.28
7/12/2021 1:15:00 PM 0 32 0 8.05 4 9.2
7/12/2021 1:30:00 PM 0 32 0 8.08 4.11 9.29
7/12/2021 1:45:00 PM 0 32 0 8.09 3.92 9.32
7/12/2021 2:00:00 PM 0 32 0 8.08 3.85 9.26
7/12/2021 2:15:00 PM 0 32 0 8.09 3.89 9.27
7/12/2021 2:30:00 PM 0 32 0 8.1 3.72 9.28
7/12/2021 2:45:00 PM 0 32 0 8.14 3.57 9.36
7/12/2021 3:00:00 PM 0 32 0 8.15 3.87 9.37
7/12/2021 3:15:00 PM 0 32 0 8.25 3.81 9.62
7/12/2021 3:30:00 PM 0 32 0 8.36 3.74 9.79
7/12/2021 3:45:00 PM 0 32 0 8.41 3.61 9.8
7/12/2021 4:00:00 PM 0 32 0 8.48 3.67 9.94
7/12/2021 4:15:00 PM 0 32 0 8.55 3.55 10.01
7/12/2021 4:30:00 PM 0 32 0 8.48 3.6 9.73
7/12/2021 4:45:00 PM 0 32 0 8.46 3.49 9.69
7/12/2021 5:00:00 PM 0 32 0 8.46 3.53 9.71
7/12/2021 5:15:00 PM 0 32 0 8.48 3.66 9.68
7/12/2021 5:30:00 PM 0 32 0 8.34 3.44 9.24
7/12/2021 5:45:00 PM 0 32 0 8.31 3.42 9.24
7/12/2021 6:00:00 PM 0 32 0 8.24 3.63 9.13
7/12/2021 6:15:00 PM 0 32 0 8.18 3.51 9
7/12/2021 6:30:00 PM 0 32 0 8.11 3.38 8.89
7/12/2021 6:45:00 PM 0 32 0 8.05 3.46 8.81
7/12/2021 7:00:00 PM 0 32 0 8 3.27 8.73
7/12/2021 7:15:00 PM 0 32 0 7.99 3.22 8.73
7/12/2021 7:30:00 PM 0 32 0 7.96 3.25 8.67
7/12/2021 7:45:00 PM 0 32 0 7.91 3.09 8.61
7/12/2021 8:00:00 PM 0 32 0 7.88 3.13 8.51
7/12/2021 8:15:00 PM 0 32 0 7.84 3.06 8.46
7/12/2021 8:30:00 PM 0 32 0 7.78 3.28 8.36
7/12/2021 8:45:00 PM 0 32 0 7.76 3.26 8.29
7/12/2021 9:00:00 PM 0 32 0 7.73 3.25 8.23
7/12/2021 9:15:00 PM 0 32 0 7.71 3.41 8.19
7/12/2021 9:30:00 PM 0 32 0 7.7 3.48 8.18
7/12/2021 9:45:00 PM 0 32 0 7.69 3.32 8.17
7/12/2021 10:00:00 PM 0 32 0 7.69 3.38 8.16
7/12/2021 10:15:00 PM 0 32 0 7.7 3.28 8.17
7/12/2021 10:30:00 PM 0 32 0 7.7 3.18 8.17
7/12/2021 10:45:00 PM 0 32 0 7.7 3.17 8.16
7/12/2021 11:00:00 PM 0 32 0 7.7 3.23 8.18
7/12/2021 11:15:00 PM 0 32 0 7.7 3.19 8.17
7/12/2021 11:30:00 PM 0 32 0 7.7 3.17 8.17
7/12/2021 11:45:00 PM 0 32 0 7.71 3.11 8.18
7/13/2021 12:00:00 AM 0 32 0 7.71 3.13 8.18
7/13/2021 12:15:00 AM 0 32 0 7.71 3.15 8.18
7/13/2021 12:30:00 AM 0 32 0 7.73 3.13 8.19
7/13/2021 12:45:00 AM 0 32 0 7.73 3.15 8.17
7/13/2021 1:00:00 AM 0 32 0 7.74 3.05 8.18
7/13/2021 1:15:00 AM 0 32 0 7.74 3.07 8.19
7/13/2021 1:30:00 AM 0 32 0 7.74 3.04 8.2
7/13/2021 1:45:00 AM 0 32 0 7.75 3 8.2
7/13/2021 2:00:00 AM 0 32 0 7.75 2.94 8.19
7/13/2021 2:15:00 AM 0 32 0 7.75 3.18 8.18
7/13/2021 2:30:00 AM 0 32 0 7.75 2.93 8.17
7/13/2021 2:45:00 AM 0 32 0 7.76 3.14 8.18
7/13/2021 3:00:00 AM 0 32 0 7.76 3.19 8.19
7/13/2021 3:15:00 AM 0 32 0 7.75 2.89 8.19
7/13/2021 3:30:00 AM 0 32 0 7.75 2.92 8.19
7/13/2021 3:45:00 AM 0 32 0 7.75 2.93 8.19
7/13/2021 4:00:00 AM 0 32 0 7.75 3.07 8.19
7/13/2021 4:15:00 AM 0 32 0 7.75 3.15 8.18
7/13/2021 4:30:00 AM 0 32 0 7.74 3.05 8.18
7/13/2021 4:45:00 AM 0 32 0 7.73 3.01 8.18
7/13/2021 5:00:00 AM 0 32 0 7.73 3.04 8.18
7/13/2021 5:15:00 AM 0 32 0 7.72 3.24 8.18
7/13/2021 5:30:00 AM 0 32 0 7.73 2.99 8.2
7/13/2021 5:45:00 AM 0 32 0 7.73 3.09 8.2
7/13/2021 6:00:00 AM 0 32 0 7.73 2.79 8.22
7/13/2021 6:15:00 AM 0 32 0 7.75 2.72 8.28
7/13/2021 6:30:00 AM 0 32 0 7.76 2.72 8.32
7/13/2021 6:45:00 AM 0 32 0 7.78 2.62 8.4
7/13/2021 7:00:00 AM 0 32 0 7.82 2.59 8.54
7/13/2021 7:15:00 AM 0 32 0 7.85 2.41 8.65
7/13/2021 7:30:00 AM 0 32 0 7.89 2.43 8.81
7/13/2021 7:45:00 AM 0 32 0 7.93 2.46 8.93
7/13/2021 8:00:00 AM 0 32 0 7.92 2.49 8.86
7/13/2021 8:15:00 AM 0 32 0 7.96 2.28 8.96
7/13/2021 8:30:00 AM 0 32 0 7.98 2.38 9
7/13/2021 8:45:00 AM 0 32 0 8.03 2.43 9.16
7/13/2021 9:00:00 AM 0 32 0 8.12 2.52 9.43
7/13/2021 9:15:00 AM 0 32 0 8.23 2.38 9.68
7/13/2021 9:30:00 AM 0 32 0 8.36 2.28 9.92
7/13/2021 9:45:00 AM 0 32 0 8.42 2.31 9.96
7/13/2021 10:00:00 AM 0 32 0 8.48 2.34 10.05
7/13/2021 10:15:00 AM 0 32 0 8.49 2.42 9.9
7/13/2021 10:30:00 AM 0 32 0 8.55 2.28 10.06
7/13/2021 10:45:00 AM 0 32 0 8.64 2.3 10.25
7/13/2021 11:00:00 AM 0 32 0 8.69 2.31 10.29
7/13/2021 11:15:00 AM 0 32 0 8.72 2.43 10.31
7/13/2021 11:30:00 AM 0 32 0 8.75 2.41 10.32
7/13/2021 11:45:00 AM 0 32 0 8.77 2.23 10.34
7/13/2021 12:00:00 PM 0 32 0 8.82 2.29 10.47
7/13/2021 12:15:00 PM 0 32 0 8.86 2.47 10.47
7/13/2021 12:30:00 PM 0 32 0 8.89 2.25 10.5
7/13/2021 12:45:00 PM 0 32 0 8.89 2.31 10.37
7/13/2021 1:00:00 PM 0 32 0 8.92 2.16 10.42
7/13/2021 1:15:00 PM 0 32 0 8.93 2.29 10.4
7/13/2021 1:30:00 PM 0 32 0 8.95 2.22 10.44
7/13/2021 1:45:00 PM 0 32 0 8.98 2.25 10.42
7/13/2021 2:00:00 PM 0 32 0 8.98 2.24 10.38
7/13/2021 2:15:00 PM 0 32 0 9 2.38 10.39
7/13/2021 2:30:00 PM 0 32 0 9.01 2.3 10.36
7/13/2021 2:45:00 PM 0 32 0 8.95 2.08 9.98
7/13/2021 3:00:00 PM 0 32 0 9 2.13 10.22
7/13/2021 3:15:00 PM 0 32 0 8.97 2.34 10
7/13/2021 3:30:00 PM 0 32 0 8.88 2.13 9.56
7/13/2021 3:45:00 PM 0 32 0 8.95 2.15 9.95
7/13/2021 4:00:00 PM 0 32 0 8.87 2.12 9.55
7/13/2021 4:15:00 PM 0 32 0 8.62 2.13 8.7
7/13/2021 4:30:00 PM 0 32 0 8.57 2.21 8.74
7/13/2021 4:45:00 PM 0 32 0 8.52 2.04 8.76
7/13/2021 5:00:00 PM 0 32 0 8.5 2.31 8.86
7/13/2021 5:15:00 PM 0 32 0 8.53 2.08 9.02
7/13/2021 5:30:00 PM 0 32 0 8.59 2.03 9.29
7/13/2021 5:45:00 PM 0 32 0 8.57 2.06 9.17
7/13/2021 6:00:00 PM 0 32 0 8.53 2.09 9.09
7/13/2021 6:15:00 PM 0 32 0 8.53 2.24 9.13
7/13/2021 6:30:00 PM 0 32 0 8.47 2.19 8.96
7/13/2021 6:45:00 PM 0 32 0 8.41 2.05 8.86
7/13/2021 7:00:00 PM 0 32 0 8.33 2.07 8.65
7/13/2021 7:15:00 PM 0 32 0 8.21 2.19 8.39
7/13/2021 7:30:00 PM 0 32 0 8.11 2.28 8.22
7/13/2021 7:45:00 PM 0 32 0 8.03 2.36 8.09
7/13/2021 8:00:00 PM 0 32 0 7.98 2.47 7.98
7/13/2021 8:15:00 PM 0 32 0 7.9 2.38 7.86
7/13/2021 8:30:00 PM 0 32 0 7.87 2.34 7.78
7/13/2021 8:45:00 PM 0 32 0 7.83 2.37 7.71
7/13/2021 9:00:00 PM 0 32 0 7.8 2.61 7.68
7/13/2021 9:15:00 PM 0 32 0 7.79 2.66 7.66
7/13/2021 9:30:00 PM 0 32 0 7.78 2.67 7.66
7/13/2021 9:45:00 PM 0 32 0 7.77 2.4 7.66
7/13/2021 10:00:00 PM 0 32 0 7.77 2.39 7.68
7/13/2021 10:15:00 PM 0 32 0 7.77 2.29 7.7
7/13/2021 10:30:00 PM 0 32 0 7.8 3.04 7.86
7/13/2021 10:45:00 PM 0 32 0 7.78 1179.9 7.86
7/13/2021 11:00:00 PM 0 32 0 7.76 30.46 7.86
7/13/2021 11:15:00 PM 0 32 0 7.74 17.49 7.8
7/13/2021 11:30:00 PM 0 32 0 7.74 13.34 7.79
7/13/2021 11:45:00 PM 0 32 0 7.75 9.42 7.85
7/14/2021 12:00:00 AM 0 32 0 7.75 9.72 7.92
7/14/2021 12:15:00 AM 0 32 0 7.75 22.8 8.03
7/14/2021 12:30:00 AM 0 32 0 7.75 51.06 8.1
7/14/2021 12:45:00 AM 0 32 0 7.75 63.06 8.2
7/14/2021 1:00:00 AM 0 32 0 7.74 63.62 8.23
7/14/2021 1:15:00 AM 0 32 0 7.75 55.5 8.27
7/14/2021 1:30:00 AM 0 32 0 7.77 86.75 8.3
7/14/2021 1:45:00 AM 0 32 0 7.84 88.66 8.32
7/14/2021 2:00:00 AM 0 32 0 7.84 78.11 8.32
7/14/2021 2:15:00 AM 0 32 0 7.84 76.21 8.34
7/14/2021 2:30:00 AM 0 32 0 7.84 75.79 8.34
7/14/2021 2:45:00 AM 0 32 0 7.82 102.57 8.34
7/14/2021 3:00:00 AM 18.81 65.858 0.167 7.81 58.38 8.48
7/14/2021 3:15:00 AM 18.79 65.82201 0.166 7.8 49.34 8.47
7/14/2021 3:30:00 AM 18.76 65.768 0.165 7.8 44.43 8.48
7/14/2021 3:45:00 AM 18.72 65.696 0.164 7.77 38 8.48
7/14/2021 4:00:00 AM 18.68 65.624 0.164 7.77 40.25 8.49
7/14/2021 4:15:00 AM 18.66 65.588 0.163 7.77 29.78 8.49
7/14/2021 4:30:00 AM 18.64 65.552 0.163 7.76 27.4 8.48
7/14/2021 4:45:00 AM 0 32 0 7.77 27.83 8.52
7/14/2021 5:00:00 AM 0 32 0 7.76 29.02 8.34
7/14/2021 5:15:00 AM 0 32 0 7.75 27.76 8.33
7/14/2021 5:30:00 AM 0 32 0 7.74 28.67 8.34
7/14/2021 5:45:00 AM 0 32 0 7.75 29.99 8.34
7/14/2021 6:00:00 AM 0 32 0 7.75 29.77 8.34
7/14/2021 6:15:00 AM 0 32 0 7.74 25.36 8.35
7/14/2021 6:30:00 AM 0 32 0 7.74 23.52 8.39
7/14/2021 6:45:00 AM 0 32 0 7.75 22.89 8.41
7/14/2021 7:00:00 AM 0 32 0 7.74 21.09 8.41
7/14/2021 7:15:00 AM 0 32 0 7.72 19.97 8.43
7/14/2021 7:30:00 AM 0 32 0 7.73 16.65 8.49
7/14/2021 7:45:00 AM 0 32 0 7.74 17.76 8.54
7/14/2021 8:00:00 AM 0 32 0 7.77 15.57 8.54
7/14/2021 8:15:00 AM 0 32 0 7.81 16.1 8.57
7/14/2021 8:30:00 AM 0 32 0 7.84 15.21 8.63
7/14/2021 8:45:00 AM 0 32 0 7.89 14.38 8.72
7/14/2021 9:00:00 AM 0 32 0 7.91 13.69 8.72
7/14/2021 9:15:00 AM 0 32 0 7.92 13.05 8.71
7/14/2021 9:30:00 AM 0 32 0 7.92 12.28 8.67
7/14/2021 9:45:00 AM 0 32 0 7.93 11.66 8.67
7/14/2021 10:00:00 AM 0 32 0 7.98 11.33 8.78
7/14/2021 10:15:00 AM 0 32 0 8.04 10.64 8.9
7/14/2021 10:30:00 AM 0 32 0 8.06 10.12 8.95
7/14/2021 10:45:00 AM 0 32 0 8.09 9.61 8.94
7/14/2021 11:00:00 AM 0 32 0 8.09 9.46 8.88
7/14/2021 11:15:00 AM 0 32 0 8.04 9.22 8.72
7/14/2021 11:30:00 AM 0 32 0 8.06 8.96 8.73
7/14/2021 11:45:00 AM 0 32 0 8.11 8.72 8.87
7/14/2021 12:00:00 PM 0 32 0 8.13 8.52 8.87
7/14/2021 12:15:00 PM 0 32 0 8.17 8.2 9.02
7/14/2021 12:30:00 PM 0 32 0 8.13 7.81 8.86
7/14/2021 12:45:00 PM 0 32 0 8.14 7.47 8.91
7/14/2021 1:00:00 PM 0 32 0 8.22 7.6 9.02
7/14/2021 1:15:00 PM 0 32 0 8.09 7.94 8.65
7/14/2021 1:30:00 PM 0 32 0 8.09 10.31 8.72
7/14/2021 1:45:00 PM 0 32 0 8 21.18 8.42
7/14/2021 2:00:00 PM 0 32 0 7.97 14.24 8.37
7/14/2021 2:15:00 PM 0 32 0 7.93 10.64 8.31
7/14/2021 2:30:00 PM 0 32 0 7.89 11.13 8.28
7/14/2021 2:45:00 PM 0 32 0 7.89 10.5 8.32
7/14/2021 3:00:00 PM 0 32 0 7.88 9.66 8.41
7/14/2021 3:15:00 PM 0 32 0 7.95 10.35 8.66
7/14/2021 3:30:00 PM 0 32 0 7.99 11.28 8.76
7/14/2021 3:45:00 PM 0 32 0 7.97 10.76 8.69
7/14/2021 4:00:00 PM 0 32 0 8.04 10.04 8.86
7/14/2021 4:15:00 PM 0 32 0 8.07 9.23 8.94
7/14/2021 4:30:00 PM 0 32 0 8.11 9.55 8.91
7/14/2021 4:45:00 PM 0 32 0 8.15 9.73 8.95
7/14/2021 5:00:00 PM 0 32 0 8.16 9.93 8.89
7/14/2021 5:15:00 PM 0 32 0 8.14 10.32 8.79
7/14/2021 5:30:00 PM 0 32 0 8.11 12.1 8.71
7/14/2021 5:45:00 PM 0 32 0 8.05 12.26 8.53
7/14/2021 6:00:00 PM 0 32 0 7.98 11.48 8.41
7/14/2021 6:15:00 PM 0 32 0 7.96 11.09 8.41
7/14/2021 6:30:00 PM 0 32 0 7.99 10.53 8.54
7/14/2021 6:45:00 PM 0 32 0 7.96 9.83 8.52
7/14/2021 7:00:00 PM 0 32 0 7.93 9.38 8.44
7/14/2021 7:15:00 PM 0 32 0 7.89 8.83 8.38
7/14/2021 7:30:00 PM 0 32 0 7.87 8.74 8.32
7/14/2021 7:45:00 PM 0 32 0 7.85 8.36 8.3
7/14/2021 8:00:00 PM 0 32 0 7.82 8.14 8.26
7/14/2021 8:15:00 PM 0 32 0 7.8 7.52 8.23
7/14/2021 8:30:00 PM 0 32 0 7.78 7.53 8.19
7/14/2021 8:45:00 PM 0 32 0 7.76 8.15 8.16
7/14/2021 9:00:00 PM 0 32 0 7.74 7.43 8.15
7/14/2021 9:15:00 PM 0 32 0 7.73 7.34 8.13
7/14/2021 9:30:00 PM 0 32 0 7.72 7.32 8.13
7/14/2021 9:45:00 PM 0 32 0 7.7 7.11 8.14
7/14/2021 10:00:00 PM 0 32 0 7.7 6.77 8.13
7/14/2021 10:15:00 PM 0 32 0 7.69 6.55 8.15
7/14/2021 10:30:00 PM 0 32 0 7.69 6.65 8.15
7/14/2021 10:45:00 PM 0 32 0 7.69 6.33 8.16
7/14/2021 11:00:00 PM 0 32 0 7.69 6.5 8.16
7/14/2021 11:15:00 PM 0 32 0 7.69 6.8 8.17
7/14/2021 11:30:00 PM 0 32 0 7.7 6.55 8.17
7/14/2021 11:45:00 PM 0 32 0 7.69 6.33 8.17
7/15/2021 12:00:00 AM 0 32 0 7.69 6.24 8.19
7/15/2021 12:15:00 AM 0 32 0 7.69 6.14 8.18
7/15/2021 12:30:00 AM 0 32 0 7.69 6.05 8.2
7/15/2021 12:45:00 AM 0 32 0 7.7 5.89 8.2
7/15/2021 1:00:00 AM 0 32 0 7.69 6.05 8.2
7/15/2021 1:15:00 AM 0 32 0 7.68 5.64 8.2
7/15/2021 1:30:00 AM 0 32 0 7.68 5.7 8.21
7/15/2021 1:45:00 AM 0 32 0 7.69 5.76 8.23
7/15/2021 2:00:00 AM 0 32 0 7.69 5.77 8.22
7/15/2021 2:15:00 AM 0 32 0 7.68 5.79 8.22
7/15/2021 2:30:00 AM 0 32 0 7.67 5.66 8.24
7/15/2021 2:45:00 AM 0 32 0 7.68 6.33 8.24
7/15/2021 3:00:00 AM 0 32 0 7.68 5.6 8.24
7/15/2021 3:15:00 AM 0 32 0 7.68 5.85 8.24
7/15/2021 3:30:00 AM 0 32 0 7.69 5.72 8.25
7/15/2021 3:45:00 AM 0 32 0 7.69 5.54 8.25
7/15/2021 4:00:00 AM 0 32 0 7.69 5.63 8.25
7/15/2021 4:15:00 AM 0 32 0 7.69 5.53 8.25
7/15/2021 4:30:00 AM 0 32 0 7.69 5.45 8.26
7/15/2021 4:45:00 AM 0 32 0 7.69 5.51 8.25
7/15/2021 5:00:00 AM 0 32 0 7.68 5.43 8.25
7/15/2021 5:15:00 AM 0 32 0 7.69 5.64 8.25
7/15/2021 5:30:00 AM 0 32 0 7.69 5.51 8.25
7/15/2021 5:45:00 AM 0 32 0 7.69 5.66 8.27
7/15/2021 6:00:00 AM 0 32 0 7.68 5.05 8.28
7/15/2021 6:15:00 AM 0 32 0 7.7 5.17 8.32
7/15/2021 6:30:00 AM 0 32 0 7.71 5.12 8.35
7/15/2021 6:45:00 AM 0 32 0 7.72 5.02 8.4
7/15/2021 7:00:00 AM 0 32 0 7.73 4.79 8.47
7/15/2021 7:15:00 AM 0 32 0 7.76 4.6 8.53
7/15/2021 7:30:00 AM 0 32 0 7.8 4.5 8.63
7/15/2021 7:45:00 AM 0 32 0 7.83 4.2 8.72
7/15/2021 8:00:00 AM 0 32 0 7.87 4.35 8.8
7/15/2021 8:15:00 AM 0 32 0 7.92 4.29 8.91
7/15/2021 8:30:00 AM 0 32 0 7.94 4.07 8.97
7/15/2021 8:45:00 AM 0 32 0 8 4.25 9.06
7/15/2021 9:00:00 AM 0 32 0 8.04 3.93 9.13
7/15/2021 9:15:00 AM 0 32 0 8.1 3.92 9.22
7/15/2021 9:30:00 AM 0 32 0 8.13 3.87 9.25
7/15/2021 9:45:00 AM 0 32 0 8.17 3.92 9.29
7/15/2021 10:00:00 AM 0 32 0 8.22 3.74 9.35
7/15/2021 10:15:00 AM 0 32 0 8.25 3.61 9.38
7/15/2021 10:30:00 AM 0 32 0 8.27 3.68 9.32
7/15/2021 10:45:00 AM 0 32 0 8.31 3.6 9.39
7/15/2021 11:00:00 AM 0 32 0 8.36 3.67 9.42
7/15/2021 11:15:00 AM 0 32 0 8.42 3.59 9.48
7/15/2021 11:30:00 AM 0 32 0 8.4 3.53 9.37
7/15/2021 11:45:00 AM 0 32 0 8.4 3.54 9.36
7/15/2021 12:00:00 PM 0 32 0 8.41 3.52 9.3
7/15/2021 12:15:00 PM 0 32 0 8.38 3.45 9.16
7/15/2021 12:30:00 PM 0 32 0 8.45 3.29 9.32
7/15/2021 12:45:00 PM 0 32 0 8.43 3.46 9.22
7/15/2021 1:00:00 PM 0 32 0 8.41 3.29 9.15
7/15/2021 1:15:00 PM 0 32 0 8.31 3.54 8.88
7/15/2021 1:30:00 PM 0 32 0 8.39 3.32 9.14
7/15/2021 1:45:00 PM 0 32 0 8.34 3.44 8.89
7/15/2021 2:00:00 PM 0 32 0 8.35 3.37 8.9
7/15/2021 2:15:00 PM 0 32 0 8.38 3.48 9.03
7/15/2021 2:30:00 PM 0 32 0 8.49 3.25 9.26
7/15/2021 2:45:00 PM 0 32 0 8.51 3.55 9.24
7/15/2021 3:00:00 PM 0 32 0 8.5 3.31 9.14
7/15/2021 3:15:00 PM 0 32 0 8.51 3.39 9.13
7/15/2021 3:30:00 PM 0 32 0 8.48 3.35 9.06
7/15/2021 3:45:00 PM 0 32 0 8.51 3.45 9.11
7/15/2021 4:00:00 PM 0 32 0 8.58 3.17 9.22
7/15/2021 4:15:00 PM 0 32 0 8.57 3.49 9.13
7/15/2021 4:30:00 PM 0 32 0 8.58 3.42 9.12
7/15/2021 4:45:00 PM 0 32 0 8.58 3.36 9.12
7/15/2021 5:00:00 PM 0 32 0 8.57 3.41 9.08
7/15/2021 5:15:00 PM 0 32 0 8.54 3.47 8.98
7/15/2021 5:30:00 PM 0 32 0 8.5 3.3 8.89
7/15/2021 5:45:00 PM 0 32 0 8.45 3.3 8.83
7/15/2021 6:00:00 PM 0 32 0 8.41 3.3 8.75
7/15/2021 6:15:00 PM 0 32 0 8.35 3.43 8.62
7/15/2021 6:30:00 PM 0 32 0 8.25 3.16 8.44
7/15/2021 6:45:00 PM 0 32 0 8.16 3.29 8.28
7/15/2021 7:00:00 PM 0 32 0 8.1 3.16 8.18
7/15/2021 7:15:00 PM 0 32 0 8.04 3.23 8.08
7/15/2021 7:30:00 PM 0 32 0 8 3.25 8.05
7/15/2021 7:45:00 PM 0 32 0 7.97 3.15 8.05
7/15/2021 8:00:00 PM 0 32 0 7.92 3.01 7.99
7/15/2021 8:15:00 PM 0 32 0 7.88 3.39 7.89
7/15/2021 8:30:00 PM 0 32 0 7.83 3.33 7.82
7/15/2021 8:45:00 PM 0 32 0 7.79 3.23 7.76
7/15/2021 9:00:00 PM 0 32 0 7.76 3.18 7.73
7/15/2021 9:15:00 PM 0 32 0 7.75 3.23 7.72
7/15/2021 9:30:00 PM 0 32 0 7.73 3.38 7.72
7/15/2021 9:45:00 PM 0 32 0 7.72 3.31 7.73
7/15/2021 10:00:00 PM 0 32 0 7.72 3.24 7.73
7/15/2021 10:15:00 PM 0 32 0 7.71 3.27 7.74
7/15/2021 10:30:00 PM 0 32 0 7.7 3.18 7.76
7/15/2021 10:45:00 PM 0 32 0 7.7 3.4 7.77
7/15/2021 11:00:00 PM 0 32 0 7.69 4.51 7.79
7/15/2021 11:15:00 PM 0 32 0 7.7 3.96 7.8
7/15/2021 11:30:00 PM 0 32 0 7.7 4.6 7.8
7/15/2021 11:45:00 PM 0 32 0 7.7 3.07 7.82
7/16/2021 12:00:00 AM 0 32 0 7.71 3.05 7.83
7/16/2021 12:15:00 AM 0 32 0 7.72 3.14 7.84
7/16/2021 12:30:00 AM 0 32 0 7.72 3.1 7.85
7/16/2021 12:45:00 AM 0 32 0 7.71 3.04 7.85
7/16/2021 1:00:00 AM 0 32 0 7.7 3.05 7.86
7/16/2021 1:15:00 AM 0 32 0 7.7 3.02 7.87
7/16/2021 1:30:00 AM 0 32 0 7.71 3.04 7.88
7/16/2021 1:45:00 AM 0 32 0 7.7 3.12 7.88
7/16/2021 2:00:00 AM 0 32 0 7.7 3.23 7.9
7/16/2021 2:15:00 AM 0 32 0 7.71 2.91 7.9
7/16/2021 2:30:00 AM 0 32 0 7.71 2.97 7.9
7/16/2021 2:45:00 AM 0 32 0 7.71 3.24 7.92
7/16/2021 3:00:00 AM 0 32 0 7.71 3.49 7.92
7/16/2021 3:15:00 AM 0 32 0 7.71 3.19 7.92
7/16/2021 3:30:00 AM 0 32 0 7.71 3.35 7.92
7/16/2021 3:45:00 AM 0 32 0 7.71 3.38 7.93
7/16/2021 4:00:00 AM 0 32 0 7.71 3.31 7.93
7/16/2021 4:15:00 AM 0 32 0 7.72 3.22 7.95
7/16/2021 4:30:00 AM 0 32 0 7.72 3.08 7.95
7/16/2021 4:45:00 AM 0 32 0 7.72 3.18 7.95
7/16/2021 5:00:00 AM 0 32 0 7.72 3.22 7.95
7/16/2021 5:15:00 AM 0 32 0 7.71 3.25 7.97
7/16/2021 5:30:00 AM 0 32 0 7.71 3.24 7.96
7/16/2021 5:45:00 AM 0 32 0 7.72 3.23 7.98
7/16/2021 6:00:00 AM 0 32 0 7.72 3.11 8.03
7/16/2021 6:15:00 AM 0 32 0 7.72 2.97 8.09
7/16/2021 6:30:00 AM 0 32 0 7.75 2.87 8.17
7/16/2021 6:45:00 AM 0 32 0 7.76 2.99 8.28
7/16/2021 7:00:00 AM 0 32 0 7.79 2.74 8.41
7/16/2021 7:15:00 AM 0 32 0 7.84 2.75 8.6
7/16/2021 7:30:00 AM 0 32 0 7.87 2.63 8.67
7/16/2021 7:45:00 AM 0 32 0 7.85 2.81 8.56
7/16/2021 8:00:00 AM 0 32 0 7.94 2.66 8.86
7/16/2021 8:15:00 AM 0 32 0 8.01 2.59 9.04
7/16/2021 8:30:00 AM 0 32 0 8.11 2.62 9.21
7/16/2021 8:45:00 AM 0 32 0 8.12 2.7 9.17
7/16/2021 9:00:00 AM 0 32 0 8.16 2.53 9.18
7/16/2021 9:15:00 AM 0 32 0 8.13 2.57 9.01
7/16/2021 9:30:00 AM 0 32 0 8.24 2.67 9.33
7/16/2021 9:45:00 AM 0 32 0 8.22 2.6 9.15
7/16/2021 10:00:00 AM 0 32 0 8.15 2.54 8.96
7/16/2021 10:15:00 AM 0 32 0 8.31 2.5 9.36
7/16/2021 10:30:00 AM 0 32 0 8.34 2.79 9.39
7/16/2021 10:45:00 AM 0 32 0 8.35 2.42 9.4
7/16/2021 11:00:00 AM 0 32 0 8.41 2.54 9.5
7/16/2021 11:15:00 AM 0 32 0 8.49 2.39 9.67
7/16/2021 11:30:00 AM 0 32 0 8.51 2.46 9.64
7/16/2021 11:45:00 AM 0 32 0 8.52 2.45 9.64
7/16/2021 12:00:00 PM 0 32 0 8.45 2.65 9.4
7/16/2021 12:15:00 PM 0 32 0 8.47 2.54 9.5
7/16/2021 12:30:00 PM 0 32 0 8.46 2.32 9.46
7/16/2021 12:45:00 PM 0 32 0 8.49 2.38 9.53
7/16/2021 1:00:00 PM 0 32 0 8.42 2.35 9.33
7/16/2021 1:15:00 PM 0 32 0 8.46 2.3 9.46
7/16/2021 1:30:00 PM 0 32 0 8.49 2.27 9.55
7/16/2021 1:45:00 PM 0 32 0 8.48 2.38 9.5
7/16/2021 2:00:00 PM 0 32 0 8.51 2.35 9.59
7/16/2021 2:15:00 PM 0 32 0 8.55 2.38 9.63
7/16/2021 2:30:00 PM 0 32 0 8.59 2.36 9.7
7/16/2021 2:45:00 PM 0 32 0 8.66 2.39 9.86
7/16/2021 3:00:00 PM 0 32 0 8.73 2.29 9.93
7/16/2021 3:15:00 PM 0 32 0 8.73 2.33 9.84
7/16/2021 3:30:00 PM 0 32 0 8.72 2.25 9.76
7/16/2021 3:45:00 PM 0 32 0 8.69 2.18 9.64
7/16/2021 4:00:00 PM 0 32 0 8.67 2.3 9.58
7/16/2021 4:15:00 PM 0 32 0 8.7 2.37 9.66
7/16/2021 4:30:00 PM 0 32 0 8.65 2.42 9.44
7/16/2021 4:45:00 PM 0 32 0 8.67 2.42 9.55
7/16/2021 5:00:00 PM 0 32 0 8.61 2.4 9.36
7/16/2021 5:15:00 PM 0 32 0 8.63 2.27 9.46
7/16/2021 5:30:00 PM 0 32 0 8.58 2.53 9.24
7/16/2021 5:45:00 PM 0 32 0 8.5 2.51 9.04
7/16/2021 6:00:00 PM 0 32 0 8.42 2.3 8.9
7/16/2021 6:15:00 PM 0 32 0 8.36 2.34 8.86
7/16/2021 6:30:00 PM 0 32 0 8.38 2.34 8.96
7/16/2021 6:45:00 PM 0 32 0 8.3 2.29 8.8
7/16/2021 7:00:00 PM 0 32 0 8.25 2.32 8.73
7/16/2021 7:15:00 PM 0 32 0 8.13 2.17 8.45
7/16/2021 7:30:00 PM 0 32 0 8.06 2.15 8.35
7/16/2021 7:45:00 PM 0 32 0 7.98 2.17 8.18
7/16/2021 8:00:00 PM 0 32 0 7.93 2.21 8.09
7/16/2021 8:15:00 PM 0 32 0 7.9 2.26 8
7/16/2021 8:30:00 PM 0 32 0 7.85 2.45 7.92
7/16/2021 8:45:00 PM 0 32 0 7.83 2.55 7.87
7/16/2021 9:00:00 PM 0 32 0 7.8 2.35 7.84
7/16/2021 9:15:00 PM 0 32 0 7.79 2.53 7.81
7/16/2021 9:30:00 PM 0 32 0 7.77 2.5 7.81
7/16/2021 9:45:00 PM 0 32 0 7.76 2.4 7.82
7/16/2021 10:00:00 PM 0 32 0 7.75 2.59 7.81
7/16/2021 10:15:00 PM 0 32 0 7.76 2.37 7.82
7/16/2021 10:30:00 PM 0 32 0 7.75 2.44 7.82
7/16/2021 10:45:00 PM 0 32 0 7.76 2.4 7.84
7/16/2021 11:00:00 PM 0 32 0 7.75 2.4 7.84
7/16/2021 11:15:00 PM 0 32 0 7.75 2.34 7.85
7/16/2021 11:30:00 PM 0 32 0 7.74 2.41 7.85
7/16/2021 11:45:00 PM 0 32 0 7.74 2.59 7.87
7/17/2021 12:00:00 AM 0 32 0 7.75 2.37 7.87
7/17/2021 12:15:00 AM 0 32 0 7.75 2.33 7.89
7/17/2021 12:30:00 AM 0 32 0 7.75 2.55 7.89
7/17/2021 12:45:00 AM 0 32 0 7.75 2.47 7.88
7/17/2021 1:00:00 AM 0 32 0 7.75 2.53 7.9
7/17/2021 1:15:00 AM 0 32 0 7.76 2.53 7.9
7/17/2021 1:30:00 AM 0 32 0 7.75 2.49 7.91
7/17/2021 1:45:00 AM 0 32 0 7.75 2.39 7.92
7/17/2021 2:00:00 AM 0 32 0 7.75 2.58 7.92
7/17/2021 2:15:00 AM 0 32 0 7.75 2.52 7.93
7/17/2021 2:30:00 AM 0 32 0 7.76 2.45 7.93
7/17/2021 2:45:00 AM 0 32 0 7.75 2.48 7.94
7/17/2021 3:00:00 AM<